<?xml version="1.0" encoding="UTF-8" standalone="no" ?>
<gpx xmlns="http://www.topografix.com/GPX/1/1" xmlns:xsi="http://www.w3.org/2001/XMLSchema-instance" xsi:schemaLocation="http://www.topografix.com/GPX/1/1 http://www.topografix.com/GPX/1/1/gpx.xsd" version="1.1" creator="VisuGPX - https://www.visugpx.com">
  <metadata>
    <name>Thorame (04) - Fabas (82) -  2021</name>
    <desc><![CDATA[Thorame (04) - Fabas (82) -  2021
plus de voies vertes qu'à l'aller vers Tarascon...]]></desc>
  </metadata>
  <trk>
    <name><![CDATA[Jour01]]></name>
    <trkseg>
      <trkpt lat="44.08168" lon="6.50068">
        <ele>101.3</ele>
        <time>2021-08-13T06:03:32Z</time>
      </trkpt>
      <trkpt lat="44.08213" lon="6.49956">
        <ele>106.8</ele>
        <time>2021-08-13T06:06:06Z</time>
      </trkpt>
      <trkpt lat="44.0839" lon="6.4981">
        <ele>105.5</ele>
        <time>2021-08-13T06:06:46Z</time>
      </trkpt>
      <trkpt lat="44.085" lon="6.49785">
        <ele>105.7</ele>
        <time>2021-08-13T06:07:02Z</time>
      </trkpt>
      <trkpt lat="44.08625" lon="6.49767">
        <ele>106.1</ele>
        <time>2021-08-13T06:07:17Z</time>
      </trkpt>
      <trkpt lat="44.08762" lon="6.49779">
        <ele>108.5</ele>
        <time>2021-08-13T06:07:32Z</time>
      </trkpt>
      <trkpt lat="44.08866" lon="6.49699">
        <ele>115.1</ele>
        <time>2021-08-13T06:07:47Z</time>
      </trkpt>
      <trkpt lat="44.0896" lon="6.49675">
        <ele>117.1</ele>
        <time>2021-08-13T06:08:07Z</time>
      </trkpt>
      <trkpt lat="44.09043" lon="6.49605">
        <ele>138.9</ele>
        <time>2021-08-13T06:08:51Z</time>
      </trkpt>
      <trkpt lat="44.09042" lon="6.49472">
        <ele>213.7</ele>
        <time>2021-08-13T06:09:28Z</time>
      </trkpt>
      <trkpt lat="44.08999" lon="6.49346">
        <ele>226</ele>
        <time>2021-08-13T06:09:43Z</time>
      </trkpt>
      <trkpt lat="44.08953" lon="6.49226">
        <ele>247.2</ele>
        <time>2021-08-13T06:10:03Z</time>
      </trkpt>
      <trkpt lat="44.08928" lon="6.49103">
        <ele>171.4</ele>
        <time>2021-08-13T06:10:23Z</time>
      </trkpt>
      <trkpt lat="44.08913" lon="6.4896">
        <ele>177.5</ele>
        <time>2021-08-13T06:10:38Z</time>
      </trkpt>
      <trkpt lat="44.08941" lon="6.48818">
        <ele>184.2</ele>
        <time>2021-08-13T06:10:53Z</time>
      </trkpt>
      <trkpt lat="44.08966" lon="6.48664">
        <ele>202.4</ele>
        <time>2021-08-13T06:11:08Z</time>
      </trkpt>
      <trkpt lat="44.08975" lon="6.48505">
        <ele>212.7</ele>
        <time>2021-08-13T06:11:23Z</time>
      </trkpt>
      <trkpt lat="44.08962" lon="6.48367">
        <ele>218.3</ele>
        <time>2021-08-13T06:11:38Z</time>
      </trkpt>
      <trkpt lat="44.08935" lon="6.48223">
        <ele>190.8</ele>
        <time>2021-08-13T06:11:58Z</time>
      </trkpt>
      <trkpt lat="44.08823" lon="6.48217">
        <ele>206.7</ele>
        <time>2021-08-13T06:12:18Z</time>
      </trkpt>
      <trkpt lat="44.08722" lon="6.48185">
        <ele>216</ele>
        <time>2021-08-13T06:12:38Z</time>
      </trkpt>
      <trkpt lat="44.08596" lon="6.48136">
        <ele>225.7</ele>
        <time>2021-08-13T06:12:58Z</time>
      </trkpt>
      <trkpt lat="44.08477" lon="6.48154">
        <ele>231.1</ele>
        <time>2021-08-13T06:13:13Z</time>
      </trkpt>
      <trkpt lat="44.08374" lon="6.48185">
        <ele>241.6</ele>
        <time>2021-08-13T06:13:28Z</time>
      </trkpt>
      <trkpt lat="44.08281" lon="6.48204">
        <ele>250.2</ele>
        <time>2021-08-13T06:13:43Z</time>
      </trkpt>
      <trkpt lat="44.08181" lon="6.48197">
        <ele>255.1</ele>
        <time>2021-08-13T06:13:53Z</time>
      </trkpt>
      <trkpt lat="44.08087" lon="6.48185">
        <ele>260.4</ele>
        <time>2021-08-13T06:14:03Z</time>
      </trkpt>
      <trkpt lat="44.07981" lon="6.48198">
        <ele>267.6</ele>
        <time>2021-08-13T06:14:18Z</time>
      </trkpt>
      <trkpt lat="44.07864" lon="6.48149">
        <ele>272.7</ele>
        <time>2021-08-13T06:14:33Z</time>
      </trkpt>
      <trkpt lat="44.07752" lon="6.48067">
        <ele>281.5</ele>
        <time>2021-08-13T06:14:48Z</time>
      </trkpt>
      <trkpt lat="44.07641" lon="6.48117">
        <ele>325.3</ele>
        <time>2021-08-13T06:16:15Z</time>
      </trkpt>
      <trkpt lat="44.07438" lon="6.48546">
        <ele>315.8</ele>
        <time>2021-08-13T06:16:20Z</time>
      </trkpt>
      <trkpt lat="44.0734" lon="6.48444">
        <ele>506.3</ele>
        <time>2021-08-13T06:16:30Z</time>
      </trkpt>
      <trkpt lat="44.07219" lon="6.48452">
        <ele>651</ele>
        <time>2021-08-13T06:16:45Z</time>
      </trkpt>
      <trkpt lat="44.0712" lon="6.48437">
        <ele>751.5</ele>
        <time>2021-08-13T06:17:00Z</time>
      </trkpt>
      <trkpt lat="44.06992" lon="6.48339">
        <ele>919.7</ele>
        <time>2021-08-13T06:17:15Z</time>
      </trkpt>
      <trkpt lat="44.06907" lon="6.48262">
        <ele>955.9</ele>
        <time>2021-08-13T06:17:30Z</time>
      </trkpt>
      <trkpt lat="44.068" lon="6.48185">
        <ele>970.4</ele>
        <time>2021-08-13T06:17:45Z</time>
      </trkpt>
      <trkpt lat="44.06689" lon="6.48142">
        <ele>982.6</ele>
        <time>2021-08-13T06:18:00Z</time>
      </trkpt>
      <trkpt lat="44.06572" lon="6.48123">
        <ele>992.1</ele>
        <time>2021-08-13T06:18:15Z</time>
      </trkpt>
      <trkpt lat="44.06437" lon="6.4812">
        <ele>1001.5</ele>
        <time>2021-08-13T06:18:30Z</time>
      </trkpt>
      <trkpt lat="44.06305" lon="6.4814">
        <ele>1011.2</ele>
        <time>2021-08-13T06:18:45Z</time>
      </trkpt>
      <trkpt lat="44.06216" lon="6.48152">
        <ele>1016.9</ele>
        <time>2021-08-13T06:18:55Z</time>
      </trkpt>
      <trkpt lat="44.06084" lon="6.48158">
        <ele>1025.1</ele>
        <time>2021-08-13T06:19:10Z</time>
      </trkpt>
      <trkpt lat="44.05995" lon="6.48181">
        <ele>1030.3</ele>
        <time>2021-08-13T06:19:20Z</time>
      </trkpt>
      <trkpt lat="44.05881" lon="6.48209">
        <ele>1037.5</ele>
        <time>2021-08-13T06:19:35Z</time>
      </trkpt>
      <trkpt lat="44.05783" lon="6.48246">
        <ele>1044.5</ele>
        <time>2021-08-13T06:19:50Z</time>
      </trkpt>
      <trkpt lat="44.05691" lon="6.48293">
        <ele>1051</ele>
        <time>2021-08-13T06:20:05Z</time>
      </trkpt>
      <trkpt lat="44.05601" lon="6.48315">
        <ele>1058</ele>
        <time>2021-08-13T06:20:20Z</time>
      </trkpt>
      <trkpt lat="44.05514" lon="6.48257">
        <ele>1061.5</ele>
        <time>2021-08-13T06:20:35Z</time>
      </trkpt>
      <trkpt lat="44.05382" lon="6.48246">
        <ele>1067.3</ele>
        <time>2021-08-13T06:20:50Z</time>
      </trkpt>
      <trkpt lat="44.05287" lon="6.48296">
        <ele>1070.7</ele>
        <time>2021-08-13T06:21:05Z</time>
      </trkpt>
      <trkpt lat="44.05188" lon="6.48286">
        <ele>1076.3</ele>
        <time>2021-08-13T06:21:20Z</time>
      </trkpt>
      <trkpt lat="44.05075" lon="6.48217">
        <ele>1082.6</ele>
        <time>2021-08-13T06:21:35Z</time>
      </trkpt>
      <trkpt lat="44.04997" lon="6.48143">
        <ele>1085.8</ele>
        <time>2021-08-13T06:21:45Z</time>
      </trkpt>
      <trkpt lat="44.04902" lon="6.4814">
        <ele>1092</ele>
        <time>2021-08-13T06:22:00Z</time>
      </trkpt>
      <trkpt lat="44.04809" lon="6.4817">
        <ele>1096.6</ele>
        <time>2021-08-13T06:22:20Z</time>
      </trkpt>
      <trkpt lat="44.04737" lon="6.4824">
        <ele>1103.9</ele>
        <time>2021-08-13T06:22:35Z</time>
      </trkpt>
      <trkpt lat="44.0462" lon="6.48268">
        <ele>1106.4</ele>
        <time>2021-08-13T06:22:45Z</time>
      </trkpt>
      <trkpt lat="44.04507" lon="6.48321">
        <ele>1108.6</ele>
        <time>2021-08-13T06:23:00Z</time>
      </trkpt>
      <trkpt lat="44.04418" lon="6.48379">
        <ele>1112.4</ele>
        <time>2021-08-13T06:23:15Z</time>
      </trkpt>
      <trkpt lat="44.04307" lon="6.48358">
        <ele>1114.5</ele>
        <time>2021-08-13T06:23:30Z</time>
      </trkpt>
      <trkpt lat="44.04206" lon="6.48428">
        <ele>1117.8</ele>
        <time>2021-08-13T06:23:45Z</time>
      </trkpt>
      <trkpt lat="44.04084" lon="6.48453">
        <ele>1123.1</ele>
        <time>2021-08-13T06:24:00Z</time>
      </trkpt>
      <trkpt lat="44.04002" lon="6.48513">
        <ele>1126.9</ele>
        <time>2021-08-13T06:24:10Z</time>
      </trkpt>
      <trkpt lat="44.0392" lon="6.4859">
        <ele>1130.3</ele>
        <time>2021-08-13T06:24:25Z</time>
      </trkpt>
      <trkpt lat="44.03813" lon="6.48606">
        <ele>1135.7</ele>
        <time>2021-08-13T06:24:45Z</time>
      </trkpt>
      <trkpt lat="44.0373" lon="6.48658">
        <ele>1138.9</ele>
        <time>2021-08-13T06:24:55Z</time>
      </trkpt>
      <trkpt lat="44.03616" lon="6.48719">
        <ele>1127.8</ele>
        <time>2021-08-13T06:25:10Z</time>
      </trkpt>
      <trkpt lat="44.03554" lon="6.48606">
        <ele>1129.3</ele>
        <time>2021-08-13T06:25:25Z</time>
      </trkpt>
      <trkpt lat="44.03463" lon="6.48568">
        <ele>1132.8</ele>
        <time>2021-08-13T06:25:40Z</time>
      </trkpt>
      <trkpt lat="44.03371" lon="6.48572">
        <ele>1114.3</ele>
        <time>2021-08-13T06:26:25Z</time>
      </trkpt>
      <trkpt lat="44.03264" lon="6.48624">
        <ele>1096</ele>
        <time>2021-08-13T06:26:53Z</time>
      </trkpt>
      <trkpt lat="44.03173" lon="6.48704">
        <ele>1079.6</ele>
        <time>2021-08-13T06:27:08Z</time>
      </trkpt>
      <trkpt lat="44.03119" lon="6.48834">
        <ele>1067.4</ele>
        <time>2021-08-13T06:27:23Z</time>
      </trkpt>
      <trkpt lat="44.0305" lon="6.4895">
        <ele>1052.9</ele>
        <time>2021-08-13T06:27:38Z</time>
      </trkpt>
      <trkpt lat="44.02947" lon="6.48939">
        <ele>1045.7</ele>
        <time>2021-08-13T06:27:53Z</time>
      </trkpt>
      <trkpt lat="44.02834" lon="6.48898">
        <ele>1037.1</ele>
        <time>2021-08-13T06:28:08Z</time>
      </trkpt>
      <trkpt lat="44.02753" lon="6.48958">
        <ele>1027.9</ele>
        <time>2021-08-13T06:28:18Z</time>
      </trkpt>
      <trkpt lat="44.02698" lon="6.49072">
        <ele>1021.7</ele>
        <time>2021-08-13T06:28:28Z</time>
      </trkpt>
      <trkpt lat="44.02597" lon="6.49158">
        <ele>1009.3</ele>
        <time>2021-08-13T06:28:43Z</time>
      </trkpt>
      <trkpt lat="44.02533" lon="6.49279">
        <ele>1000.6</ele>
        <time>2021-08-13T06:28:58Z</time>
      </trkpt>
      <trkpt lat="44.02475" lon="6.49423">
        <ele>993.6</ele>
        <time>2021-08-13T06:29:13Z</time>
      </trkpt>
      <trkpt lat="44.02402" lon="6.49553">
        <ele>986.4</ele>
        <time>2021-08-13T06:29:28Z</time>
      </trkpt>
      <trkpt lat="44.02301" lon="6.49574">
        <ele>979.9</ele>
        <time>2021-08-13T06:29:43Z</time>
      </trkpt>
      <trkpt lat="44.02185" lon="6.4959">
        <ele>973.8</ele>
        <time>2021-08-13T06:29:58Z</time>
      </trkpt>
      <trkpt lat="44.02071" lon="6.49632">
        <ele>969.5</ele>
        <time>2021-08-13T06:30:13Z</time>
      </trkpt>
      <trkpt lat="44.01985" lon="6.49728">
        <ele>964.2</ele>
        <time>2021-08-13T06:30:28Z</time>
      </trkpt>
      <trkpt lat="44.01912" lon="6.49837">
        <ele>960.2</ele>
        <time>2021-08-13T06:30:43Z</time>
      </trkpt>
      <trkpt lat="44.01834" lon="6.49936">
        <ele>956.4</ele>
        <time>2021-08-13T06:30:58Z</time>
      </trkpt>
      <trkpt lat="44.01722" lon="6.49976">
        <ele>952.3</ele>
        <time>2021-08-13T06:31:13Z</time>
      </trkpt>
      <trkpt lat="44.0161" lon="6.49937">
        <ele>948.2</ele>
        <time>2021-08-13T06:31:28Z</time>
      </trkpt>
      <trkpt lat="44.01481" lon="6.49864">
        <ele>944.2</ele>
        <time>2021-08-13T06:31:43Z</time>
      </trkpt>
      <trkpt lat="44.01377" lon="6.49763">
        <ele>940.1</ele>
        <time>2021-08-13T06:31:58Z</time>
      </trkpt>
      <trkpt lat="44.01274" lon="6.49664">
        <ele>936.6</ele>
        <time>2021-08-13T06:32:13Z</time>
      </trkpt>
      <trkpt lat="44.01179" lon="6.49664">
        <ele>934.2</ele>
        <time>2021-08-13T06:32:23Z</time>
      </trkpt>
      <trkpt lat="44.01071" lon="6.49684">
        <ele>931.5</ele>
        <time>2021-08-13T06:32:38Z</time>
      </trkpt>
      <trkpt lat="44.00956" lon="6.49698">
        <ele>929.8</ele>
        <time>2021-08-13T06:32:53Z</time>
      </trkpt>
      <trkpt lat="44.00836" lon="6.49696">
        <ele>927.9</ele>
        <time>2021-08-13T06:33:08Z</time>
      </trkpt>
      <trkpt lat="44.00736" lon="6.49749">
        <ele>926.6</ele>
        <time>2021-08-13T06:33:28Z</time>
      </trkpt>
      <trkpt lat="44.00695" lon="6.49876">
        <ele>925.7</ele>
        <time>2021-08-13T06:33:43Z</time>
      </trkpt>
      <trkpt lat="44.00673" lon="6.50026">
        <ele>924.2</ele>
        <time>2021-08-13T06:33:58Z</time>
      </trkpt>
      <trkpt lat="44.00604" lon="6.50107">
        <ele>922.5</ele>
        <time>2021-08-13T06:34:08Z</time>
      </trkpt>
      <trkpt lat="44.00477" lon="6.50091">
        <ele>922.8</ele>
        <time>2021-08-13T06:34:23Z</time>
      </trkpt>
      <trkpt lat="44.00355" lon="6.50113">
        <ele>922</ele>
        <time>2021-08-13T06:34:38Z</time>
      </trkpt>
      <trkpt lat="44.00234" lon="6.50149">
        <ele>920.8</ele>
        <time>2021-08-13T06:34:53Z</time>
      </trkpt>
      <trkpt lat="44.0012" lon="6.50102">
        <ele>920.4</ele>
        <time>2021-08-13T06:35:08Z</time>
      </trkpt>
      <trkpt lat="44.00035" lon="6.50041">
        <ele>922</ele>
        <time>2021-08-13T06:35:18Z</time>
      </trkpt>
      <trkpt lat="43.99932" lon="6.50023">
        <ele>921.9</ele>
        <time>2021-08-13T06:35:28Z</time>
      </trkpt>
      <trkpt lat="43.99838" lon="6.50038">
        <ele>921.6</ele>
        <time>2021-08-13T06:35:38Z</time>
      </trkpt>
      <trkpt lat="43.99742" lon="6.50142">
        <ele>922.8</ele>
        <time>2021-08-13T06:35:53Z</time>
      </trkpt>
      <trkpt lat="43.99666" lon="6.50205">
        <ele>923.2</ele>
        <time>2021-08-13T06:36:03Z</time>
      </trkpt>
      <trkpt lat="43.99563" lon="6.50268">
        <ele>922.8</ele>
        <time>2021-08-13T06:36:18Z</time>
      </trkpt>
      <trkpt lat="43.9947" lon="6.50273">
        <ele>923</ele>
        <time>2021-08-13T06:36:33Z</time>
      </trkpt>
      <trkpt lat="43.99377" lon="6.50312">
        <ele>925.1</ele>
        <time>2021-08-13T06:36:48Z</time>
      </trkpt>
      <trkpt lat="43.99287" lon="6.5031">
        <ele>925.4</ele>
        <time>2021-08-13T06:37:03Z</time>
      </trkpt>
      <trkpt lat="43.99173" lon="6.50336">
        <ele>928.6</ele>
        <time>2021-08-13T06:37:23Z</time>
      </trkpt>
      <trkpt lat="43.99073" lon="6.50354">
        <ele>929.6</ele>
        <time>2021-08-13T06:37:38Z</time>
      </trkpt>
      <trkpt lat="43.99003" lon="6.50441">
        <ele>931.2</ele>
        <time>2021-08-13T06:37:53Z</time>
      </trkpt>
      <trkpt lat="43.98911" lon="6.50513">
        <ele>934</ele>
        <time>2021-08-13T06:38:08Z</time>
      </trkpt>
      <trkpt lat="43.98793" lon="6.50475">
        <ele>934.3</ele>
        <time>2021-08-13T06:38:23Z</time>
      </trkpt>
      <trkpt lat="43.98695" lon="6.50476">
        <ele>934.9</ele>
        <time>2021-08-13T06:38:33Z</time>
      </trkpt>
      <trkpt lat="43.98586" lon="6.50566">
        <ele>936.4</ele>
        <time>2021-08-13T06:38:48Z</time>
      </trkpt>
      <trkpt lat="43.98487" lon="6.50633">
        <ele>937.4</ele>
        <time>2021-08-13T06:39:03Z</time>
      </trkpt>
      <trkpt lat="43.98387" lon="6.50665">
        <ele>938.6</ele>
        <time>2021-08-13T06:39:18Z</time>
      </trkpt>
      <trkpt lat="43.98266" lon="6.50701">
        <ele>939.5</ele>
        <time>2021-08-13T06:39:33Z</time>
      </trkpt>
      <trkpt lat="43.98165" lon="6.50774">
        <ele>939.4</ele>
        <time>2021-08-13T06:39:48Z</time>
      </trkpt>
      <trkpt lat="43.9805" lon="6.5076">
        <ele>937.6</ele>
        <time>2021-08-13T06:40:03Z</time>
      </trkpt>
      <trkpt lat="43.97943" lon="6.50809">
        <ele>938.1</ele>
        <time>2021-08-13T06:40:18Z</time>
      </trkpt>
      <trkpt lat="43.97857" lon="6.50851">
        <ele>937.7</ele>
        <time>2021-08-13T06:40:33Z</time>
      </trkpt>
      <trkpt lat="43.97737" lon="6.50883">
        <ele>936.5</ele>
        <time>2021-08-13T06:40:53Z</time>
      </trkpt>
      <trkpt lat="43.97635" lon="6.50925">
        <ele>935.5</ele>
        <time>2021-08-13T06:41:08Z</time>
      </trkpt>
      <trkpt lat="43.97523" lon="6.50909">
        <ele>932</ele>
        <time>2021-08-13T06:41:28Z</time>
      </trkpt>
      <trkpt lat="43.97431" lon="6.5087">
        <ele>930</ele>
        <time>2021-08-13T06:41:43Z</time>
      </trkpt>
      <trkpt lat="43.97342" lon="6.50938">
        <ele>927.9</ele>
        <time>2021-08-13T06:42:03Z</time>
      </trkpt>
      <trkpt lat="43.97221" lon="6.50966">
        <ele>921.8</ele>
        <time>2021-08-13T06:42:23Z</time>
      </trkpt>
      <trkpt lat="43.97146" lon="6.51052">
        <ele>911.9</ele>
        <time>2021-08-13T06:42:38Z</time>
      </trkpt>
      <trkpt lat="43.97055" lon="6.51076">
        <ele>905.4</ele>
        <time>2021-08-13T06:42:58Z</time>
      </trkpt>
      <trkpt lat="43.9701" lon="6.50949">
        <ele>896.7</ele>
        <time>2021-08-13T06:46:29Z</time>
      </trkpt>
      <trkpt lat="43.96953" lon="6.50833">
        <ele>893</ele>
        <time>2021-08-13T06:46:49Z</time>
      </trkpt>
      <trkpt lat="43.96875" lon="6.5076">
        <ele>888.4</ele>
        <time>2021-08-13T06:47:04Z</time>
      </trkpt>
      <trkpt lat="43.96884" lon="6.50625">
        <ele>897.5</ele>
        <time>2021-08-13T06:47:34Z</time>
      </trkpt>
      <trkpt lat="43.96851" lon="6.50497">
        <ele>904.6</ele>
        <time>2021-08-13T06:48:20Z</time>
      </trkpt>
      <trkpt lat="43.96763" lon="6.50433">
        <ele>905.9</ele>
        <time>2021-08-13T06:49:05Z</time>
      </trkpt>
      <trkpt lat="43.9668" lon="6.50372">
        <ele>912.8</ele>
        <time>2021-08-13T06:49:45Z</time>
      </trkpt>
      <trkpt lat="43.96595" lon="6.50297">
        <ele>917.2</ele>
        <time>2021-08-13T06:50:30Z</time>
      </trkpt>
      <trkpt lat="43.9654" lon="6.50179">
        <ele>930.8</ele>
        <time>2021-08-13T06:51:15Z</time>
      </trkpt>
      <trkpt lat="43.96484" lon="6.50067">
        <ele>937.3</ele>
        <time>2021-08-13T06:52:00Z</time>
      </trkpt>
      <trkpt lat="43.96395" lon="6.49997">
        <ele>938.6</ele>
        <time>2021-08-13T06:52:45Z</time>
      </trkpt>
      <trkpt lat="43.96307" lon="6.49928">
        <ele>946</ele>
        <time>2021-08-13T06:53:31Z</time>
      </trkpt>
      <trkpt lat="43.96221" lon="6.49854">
        <ele>953.5</ele>
        <time>2021-08-13T06:54:21Z</time>
      </trkpt>
      <trkpt lat="43.96176" lon="6.49736">
        <ele>958.3</ele>
        <time>2021-08-13T06:55:09Z</time>
      </trkpt>
      <trkpt lat="43.96166" lon="6.49607">
        <ele>965.3</ele>
        <time>2021-08-13T06:55:57Z</time>
      </trkpt>
      <trkpt lat="43.96172" lon="6.49475">
        <ele>973</ele>
        <time>2021-08-13T06:56:42Z</time>
      </trkpt>
      <trkpt lat="43.96154" lon="6.4935">
        <ele>981.8</ele>
        <time>2021-08-13T06:57:28Z</time>
      </trkpt>
      <trkpt lat="43.96097" lon="6.49193">
        <ele>995.1</ele>
        <time>2021-08-13T06:58:11Z</time>
      </trkpt>
      <trkpt lat="43.96058" lon="6.49056">
        <ele>996.9</ele>
        <time>2021-08-13T06:58:21Z</time>
      </trkpt>
      <trkpt lat="43.96035" lon="6.48917">
        <ele>997.5</ele>
        <time>2021-08-13T06:58:31Z</time>
      </trkpt>
      <trkpt lat="43.96005" lon="6.48785">
        <ele>992.7</ele>
        <time>2021-08-13T06:58:41Z</time>
      </trkpt>
      <trkpt lat="43.95976" lon="6.48647">
        <ele>983.1</ele>
        <time>2021-08-13T06:58:51Z</time>
      </trkpt>
      <trkpt lat="43.95968" lon="6.48497">
        <ele>969.4</ele>
        <time>2021-08-13T06:59:01Z</time>
      </trkpt>
      <trkpt lat="43.95985" lon="6.48349">
        <ele>956.7</ele>
        <time>2021-08-13T06:59:11Z</time>
      </trkpt>
      <trkpt lat="43.9601" lon="6.48196">
        <ele>949.1</ele>
        <time>2021-08-13T06:59:21Z</time>
      </trkpt>
      <trkpt lat="43.96039" lon="6.4803">
        <ele>940.2</ele>
        <time>2021-08-13T06:59:31Z</time>
      </trkpt>
      <trkpt lat="43.96065" lon="6.47855">
        <ele>931.5</ele>
        <time>2021-08-13T06:59:41Z</time>
      </trkpt>
      <trkpt lat="43.96077" lon="6.47678">
        <ele>924.3</ele>
        <time>2021-08-13T06:59:51Z</time>
      </trkpt>
      <trkpt lat="43.96064" lon="6.47506">
        <ele>915.1</ele>
        <time>2021-08-13T07:00:01Z</time>
      </trkpt>
      <trkpt lat="43.96061" lon="6.47339">
        <ele>905.4</ele>
        <time>2021-08-13T07:00:11Z</time>
      </trkpt>
      <trkpt lat="43.96078" lon="6.47181">
        <ele>896.3</ele>
        <time>2021-08-13T07:00:21Z</time>
      </trkpt>
      <trkpt lat="43.96118" lon="6.47038">
        <ele>891.1</ele>
        <time>2021-08-13T07:00:31Z</time>
      </trkpt>
      <trkpt lat="43.9615" lon="6.46902">
        <ele>885.3</ele>
        <time>2021-08-13T07:00:41Z</time>
      </trkpt>
      <trkpt lat="43.96169" lon="6.46778">
        <ele>881.8</ele>
        <time>2021-08-13T07:00:51Z</time>
      </trkpt>
      <trkpt lat="43.96192" lon="6.4665">
        <ele>877</ele>
        <time>2021-08-13T07:01:01Z</time>
      </trkpt>
      <trkpt lat="43.96163" lon="6.46527">
        <ele>872.5</ele>
        <time>2021-08-13T07:01:11Z</time>
      </trkpt>
      <trkpt lat="43.96204" lon="6.46415">
        <ele>869.8</ele>
        <time>2021-08-13T07:01:21Z</time>
      </trkpt>
      <trkpt lat="43.96206" lon="6.46274">
        <ele>864.6</ele>
        <time>2021-08-13T07:01:31Z</time>
      </trkpt>
      <trkpt lat="43.96231" lon="6.46136">
        <ele>859.9</ele>
        <time>2021-08-13T07:01:41Z</time>
      </trkpt>
      <trkpt lat="43.96247" lon="6.45961">
        <ele>853.7</ele>
        <time>2021-08-13T07:01:56Z</time>
      </trkpt>
      <trkpt lat="43.9626" lon="6.45777">
        <ele>847.5</ele>
        <time>2021-08-13T07:02:11Z</time>
      </trkpt>
      <trkpt lat="43.96286" lon="6.45656">
        <ele>843.3</ele>
        <time>2021-08-13T07:02:21Z</time>
      </trkpt>
      <trkpt lat="43.9631" lon="6.45535">
        <ele>838.2</ele>
        <time>2021-08-13T07:02:31Z</time>
      </trkpt>
      <trkpt lat="43.96347" lon="6.45417">
        <ele>835.3</ele>
        <time>2021-08-13T07:02:41Z</time>
      </trkpt>
      <trkpt lat="43.96399" lon="6.45314">
        <ele>835.4</ele>
        <time>2021-08-13T07:02:51Z</time>
      </trkpt>
      <trkpt lat="43.96461" lon="6.45159">
        <ele>832.7</ele>
        <time>2021-08-13T07:03:06Z</time>
      </trkpt>
      <trkpt lat="43.96541" lon="6.45047">
        <ele>833.8</ele>
        <time>2021-08-13T07:03:21Z</time>
      </trkpt>
      <trkpt lat="43.96518" lon="6.44904">
        <ele>832.5</ele>
        <time>2021-08-13T07:03:36Z</time>
      </trkpt>
      <trkpt lat="43.96416" lon="6.44794">
        <ele>828.5</ele>
        <time>2021-08-13T07:03:51Z</time>
      </trkpt>
      <trkpt lat="43.96318" lon="6.44668">
        <ele>825.6</ele>
        <time>2021-08-13T07:04:06Z</time>
      </trkpt>
      <trkpt lat="43.9625" lon="6.44495">
        <ele>822.7</ele>
        <time>2021-08-13T07:04:21Z</time>
      </trkpt>
      <trkpt lat="43.9619" lon="6.44376">
        <ele>821.2</ele>
        <time>2021-08-13T07:04:31Z</time>
      </trkpt>
      <trkpt lat="43.96149" lon="6.44259">
        <ele>818.9</ele>
        <time>2021-08-13T07:04:41Z</time>
      </trkpt>
      <trkpt lat="43.96121" lon="6.44131">
        <ele>818</ele>
        <time>2021-08-13T07:04:51Z</time>
      </trkpt>
      <trkpt lat="43.96145" lon="6.44011">
        <ele>816.6</ele>
        <time>2021-08-13T07:05:01Z</time>
      </trkpt>
      <trkpt lat="43.96168" lon="6.43891">
        <ele>816</ele>
        <time>2021-08-13T07:05:11Z</time>
      </trkpt>
      <trkpt lat="43.96203" lon="6.43751">
        <ele>820.5</ele>
        <time>2021-08-13T07:05:26Z</time>
      </trkpt>
      <trkpt lat="43.96191" lon="6.43601">
        <ele>817.4</ele>
        <time>2021-08-13T07:05:41Z</time>
      </trkpt>
      <trkpt lat="43.9612" lon="6.43443">
        <ele>814</ele>
        <time>2021-08-13T07:05:56Z</time>
      </trkpt>
      <trkpt lat="43.96029" lon="6.43338">
        <ele>812.4</ele>
        <time>2021-08-13T07:06:11Z</time>
      </trkpt>
      <trkpt lat="43.95945" lon="6.43234">
        <ele>809.3</ele>
        <time>2021-08-13T07:06:26Z</time>
      </trkpt>
      <trkpt lat="43.95905" lon="6.43104">
        <ele>809.6</ele>
        <time>2021-08-13T07:06:41Z</time>
      </trkpt>
      <trkpt lat="43.95829" lon="6.43006">
        <ele>812.7</ele>
        <time>2021-08-13T07:06:56Z</time>
      </trkpt>
      <trkpt lat="43.95734" lon="6.42923">
        <ele>811.5</ele>
        <time>2021-08-13T07:07:11Z</time>
      </trkpt>
      <trkpt lat="43.95641" lon="6.42819">
        <ele>808.6</ele>
        <time>2021-08-13T07:07:26Z</time>
      </trkpt>
      <trkpt lat="43.95585" lon="6.42664">
        <ele>807</ele>
        <time>2021-08-13T07:07:41Z</time>
      </trkpt>
      <trkpt lat="43.95541" lon="6.42545">
        <ele>801.1</ele>
        <time>2021-08-13T07:07:51Z</time>
      </trkpt>
      <trkpt lat="43.95447" lon="6.42412">
        <ele>797.7</ele>
        <time>2021-08-13T07:08:06Z</time>
      </trkpt>
      <trkpt lat="43.95354" lon="6.42279">
        <ele>797.3</ele>
        <time>2021-08-13T07:08:21Z</time>
      </trkpt>
      <trkpt lat="43.95304" lon="6.42102">
        <ele>794.2</ele>
        <time>2021-08-13T07:08:36Z</time>
      </trkpt>
      <trkpt lat="43.9527" lon="6.41926">
        <ele>790.2</ele>
        <time>2021-08-13T07:08:51Z</time>
      </trkpt>
      <trkpt lat="43.95214" lon="6.41798">
        <ele>786.2</ele>
        <time>2021-08-13T07:09:06Z</time>
      </trkpt>
      <trkpt lat="43.95159" lon="6.41675">
        <ele>786.4</ele>
        <time>2021-08-13T07:09:21Z</time>
      </trkpt>
      <trkpt lat="43.95159" lon="6.41521">
        <ele>785.4</ele>
        <time>2021-08-13T07:09:36Z</time>
      </trkpt>
      <trkpt lat="43.95161" lon="6.41336">
        <ele>784.4</ele>
        <time>2021-08-13T07:09:51Z</time>
      </trkpt>
      <trkpt lat="43.95154" lon="6.41206">
        <ele>783.2</ele>
        <time>2021-08-13T07:10:01Z</time>
      </trkpt>
      <trkpt lat="43.9518" lon="6.4103">
        <ele>779.3</ele>
        <time>2021-08-13T07:10:16Z</time>
      </trkpt>
      <trkpt lat="43.95216" lon="6.40866">
        <ele>774.2</ele>
        <time>2021-08-13T07:10:31Z</time>
      </trkpt>
      <trkpt lat="43.95267" lon="6.40702">
        <ele>770</ele>
        <time>2021-08-13T07:10:46Z</time>
      </trkpt>
      <trkpt lat="43.95327" lon="6.40556">
        <ele>767</ele>
        <time>2021-08-13T07:11:01Z</time>
      </trkpt>
      <trkpt lat="43.95378" lon="6.40422">
        <ele>762.5</ele>
        <time>2021-08-13T07:11:16Z</time>
      </trkpt>
      <trkpt lat="43.95425" lon="6.403">
        <ele>761.1</ele>
        <time>2021-08-13T07:11:31Z</time>
      </trkpt>
      <trkpt lat="43.95469" lon="6.40172">
        <ele>759.9</ele>
        <time>2021-08-13T07:11:46Z</time>
      </trkpt>
      <trkpt lat="43.955" lon="6.40017">
        <ele>755.6</ele>
        <time>2021-08-13T07:12:01Z</time>
      </trkpt>
      <trkpt lat="43.95523" lon="6.39843">
        <ele>751.9</ele>
        <time>2021-08-13T07:12:16Z</time>
      </trkpt>
      <trkpt lat="43.95552" lon="6.39663">
        <ele>753.1</ele>
        <time>2021-08-13T07:12:31Z</time>
      </trkpt>
      <trkpt lat="43.95571" lon="6.39537">
        <ele>751</ele>
        <time>2021-08-13T07:12:41Z</time>
      </trkpt>
      <trkpt lat="43.9559" lon="6.39411">
        <ele>749</ele>
        <time>2021-08-13T07:12:51Z</time>
      </trkpt>
      <trkpt lat="43.95618" lon="6.39236">
        <ele>746.4</ele>
        <time>2021-08-13T07:13:06Z</time>
      </trkpt>
      <trkpt lat="43.95665" lon="6.39089">
        <ele>746.6</ele>
        <time>2021-08-13T07:13:21Z</time>
      </trkpt>
      <trkpt lat="43.95736" lon="6.38953">
        <ele>746.7</ele>
        <time>2021-08-13T07:13:36Z</time>
      </trkpt>
      <trkpt lat="43.95811" lon="6.38808">
        <ele>747.1</ele>
        <time>2021-08-13T07:13:51Z</time>
      </trkpt>
      <trkpt lat="43.95884" lon="6.38668">
        <ele>747</ele>
        <time>2021-08-13T07:14:06Z</time>
      </trkpt>
      <trkpt lat="43.95975" lon="6.38559">
        <ele>746.8</ele>
        <time>2021-08-13T07:14:21Z</time>
      </trkpt>
      <trkpt lat="43.96056" lon="6.38473">
        <ele>743</ele>
        <time>2021-08-13T07:14:36Z</time>
      </trkpt>
      <trkpt lat="43.9612" lon="6.38366">
        <ele>741.6</ele>
        <time>2021-08-13T07:14:51Z</time>
      </trkpt>
      <trkpt lat="43.96093" lon="6.38236">
        <ele>737.8</ele>
        <time>2021-08-13T07:15:06Z</time>
      </trkpt>
      <trkpt lat="43.9604" lon="6.38099">
        <ele>734.8</ele>
        <time>2021-08-13T07:15:21Z</time>
      </trkpt>
      <trkpt lat="43.9599" lon="6.37966">
        <ele>735.1</ele>
        <time>2021-08-13T07:15:36Z</time>
      </trkpt>
      <trkpt lat="43.9594" lon="6.37845">
        <ele>734.7</ele>
        <time>2021-08-13T07:15:51Z</time>
      </trkpt>
      <trkpt lat="43.95869" lon="6.37752">
        <ele>737.9</ele>
        <time>2021-08-13T07:16:06Z</time>
      </trkpt>
      <trkpt lat="43.95788" lon="6.37674">
        <ele>737.8</ele>
        <time>2021-08-13T07:16:21Z</time>
      </trkpt>
      <trkpt lat="43.95712" lon="6.37597">
        <ele>736.6</ele>
        <time>2021-08-13T07:16:36Z</time>
      </trkpt>
      <trkpt lat="43.95648" lon="6.37485">
        <ele>737.6</ele>
        <time>2021-08-13T07:16:51Z</time>
      </trkpt>
      <trkpt lat="43.95592" lon="6.37344">
        <ele>735.6</ele>
        <time>2021-08-13T07:17:11Z</time>
      </trkpt>
      <trkpt lat="43.95514" lon="6.37245">
        <ele>737.5</ele>
        <time>2021-08-13T07:17:26Z</time>
      </trkpt>
      <trkpt lat="43.9543" lon="6.37109">
        <ele>733.5</ele>
        <time>2021-08-13T07:17:41Z</time>
      </trkpt>
      <trkpt lat="43.95384" lon="6.36974">
        <ele>730.7</ele>
        <time>2021-08-13T07:17:56Z</time>
      </trkpt>
      <trkpt lat="43.95324" lon="6.36837">
        <ele>729.5</ele>
        <time>2021-08-13T07:18:16Z</time>
      </trkpt>
      <trkpt lat="43.95288" lon="6.36701">
        <ele>727.5</ele>
        <time>2021-08-13T07:19:05Z</time>
      </trkpt>
      <trkpt lat="43.95229" lon="6.3659">
        <ele>732.2</ele>
        <time>2021-08-13T07:23:20Z</time>
      </trkpt>
      <trkpt lat="43.95307" lon="6.3648">
        <ele>731.3</ele>
        <time>2021-08-13T07:26:14Z</time>
      </trkpt>
      <trkpt lat="43.95377" lon="6.36394">
        <ele>731.9</ele>
        <time>2021-08-13T07:26:29Z</time>
      </trkpt>
      <trkpt lat="43.95469" lon="6.36331">
        <ele>729</ele>
        <time>2021-08-13T07:26:44Z</time>
      </trkpt>
      <trkpt lat="43.95561" lon="6.36237">
        <ele>725.7</ele>
        <time>2021-08-13T07:26:59Z</time>
      </trkpt>
      <trkpt lat="43.95639" lon="6.3612">
        <ele>722.5</ele>
        <time>2021-08-13T07:27:14Z</time>
      </trkpt>
      <trkpt lat="43.95729" lon="6.36033">
        <ele>720.7</ele>
        <time>2021-08-13T07:27:29Z</time>
      </trkpt>
      <trkpt lat="43.95807" lon="6.35919">
        <ele>717</ele>
        <time>2021-08-13T07:27:44Z</time>
      </trkpt>
      <trkpt lat="43.95896" lon="6.35813">
        <ele>712.7</ele>
        <time>2021-08-13T07:27:59Z</time>
      </trkpt>
      <trkpt lat="43.95978" lon="6.35706">
        <ele>710.1</ele>
        <time>2021-08-13T07:28:14Z</time>
      </trkpt>
      <trkpt lat="43.96054" lon="6.356">
        <ele>708.4</ele>
        <time>2021-08-13T07:28:29Z</time>
      </trkpt>
      <trkpt lat="43.96128" lon="6.35492">
        <ele>710</ele>
        <time>2021-08-13T07:28:44Z</time>
      </trkpt>
      <trkpt lat="43.96204" lon="6.35384">
        <ele>711.5</ele>
        <time>2021-08-13T07:28:59Z</time>
      </trkpt>
      <trkpt lat="43.96221" lon="6.35222">
        <ele>713</ele>
        <time>2021-08-13T07:29:14Z</time>
      </trkpt>
      <trkpt lat="43.96175" lon="6.35094">
        <ele>710.2</ele>
        <time>2021-08-13T07:29:29Z</time>
      </trkpt>
      <trkpt lat="43.96168" lon="6.3495">
        <ele>711.3</ele>
        <time>2021-08-13T07:29:44Z</time>
      </trkpt>
      <trkpt lat="43.96196" lon="6.34797">
        <ele>710.3</ele>
        <time>2021-08-13T07:29:59Z</time>
      </trkpt>
      <trkpt lat="43.9621" lon="6.34662">
        <ele>710.6</ele>
        <time>2021-08-13T07:30:14Z</time>
      </trkpt>
      <trkpt lat="43.96155" lon="6.34499">
        <ele>710.3</ele>
        <time>2021-08-13T07:30:29Z</time>
      </trkpt>
      <trkpt lat="43.96055" lon="6.34392">
        <ele>709.2</ele>
        <time>2021-08-13T07:30:44Z</time>
      </trkpt>
      <trkpt lat="43.96033" lon="6.34208">
        <ele>706.9</ele>
        <time>2021-08-13T07:30:59Z</time>
      </trkpt>
      <trkpt lat="43.96048" lon="6.34042">
        <ele>706.8</ele>
        <time>2021-08-13T07:31:14Z</time>
      </trkpt>
      <trkpt lat="43.96073" lon="6.33879">
        <ele>705.6</ele>
        <time>2021-08-13T07:31:29Z</time>
      </trkpt>
      <trkpt lat="43.9613" lon="6.33726">
        <ele>706.8</ele>
        <time>2021-08-13T07:31:44Z</time>
      </trkpt>
      <trkpt lat="43.96191" lon="6.33589">
        <ele>704.1</ele>
        <time>2021-08-13T07:31:59Z</time>
      </trkpt>
      <trkpt lat="43.96193" lon="6.33433">
        <ele>704.6</ele>
        <time>2021-08-13T07:32:14Z</time>
      </trkpt>
      <trkpt lat="43.96176" lon="6.33282">
        <ele>703.7</ele>
        <time>2021-08-13T07:32:29Z</time>
      </trkpt>
      <trkpt lat="43.96156" lon="6.33114">
        <ele>703.1</ele>
        <time>2021-08-13T07:32:44Z</time>
      </trkpt>
      <trkpt lat="43.96172" lon="6.32951">
        <ele>702.7</ele>
        <time>2021-08-13T07:32:59Z</time>
      </trkpt>
      <trkpt lat="43.96187" lon="6.32804">
        <ele>704.6</ele>
        <time>2021-08-13T07:33:14Z</time>
      </trkpt>
      <trkpt lat="43.96213" lon="6.3263">
        <ele>703.8</ele>
        <time>2021-08-13T07:33:29Z</time>
      </trkpt>
      <trkpt lat="43.9626" lon="6.3251">
        <ele>703.5</ele>
        <time>2021-08-13T07:33:39Z</time>
      </trkpt>
      <trkpt lat="43.96307" lon="6.32353">
        <ele>700.8</ele>
        <time>2021-08-13T07:33:54Z</time>
      </trkpt>
      <trkpt lat="43.96322" lon="6.32228">
        <ele>700.8</ele>
        <time>2021-08-13T07:34:04Z</time>
      </trkpt>
      <trkpt lat="43.96381" lon="6.32127">
        <ele>699.9</ele>
        <time>2021-08-13T07:34:14Z</time>
      </trkpt>
      <trkpt lat="43.96451" lon="6.32047">
        <ele>699.6</ele>
        <time>2021-08-13T07:34:24Z</time>
      </trkpt>
      <trkpt lat="43.9655" lon="6.31958">
        <ele>699.6</ele>
        <time>2021-08-13T07:34:39Z</time>
      </trkpt>
      <trkpt lat="43.96624" lon="6.31862">
        <ele>698.9</ele>
        <time>2021-08-13T07:34:54Z</time>
      </trkpt>
      <trkpt lat="43.9669" lon="6.31702">
        <ele>695.1</ele>
        <time>2021-08-13T07:35:09Z</time>
      </trkpt>
      <trkpt lat="43.96731" lon="6.31576">
        <ele>690.9</ele>
        <time>2021-08-13T07:35:19Z</time>
      </trkpt>
      <trkpt lat="43.96747" lon="6.3145">
        <ele>687.1</ele>
        <time>2021-08-13T07:35:29Z</time>
      </trkpt>
      <trkpt lat="43.96806" lon="6.31307">
        <ele>689</ele>
        <time>2021-08-13T07:35:44Z</time>
      </trkpt>
      <trkpt lat="43.96907" lon="6.31232">
        <ele>688</ele>
        <time>2021-08-13T07:35:59Z</time>
      </trkpt>
      <trkpt lat="43.97023" lon="6.3118">
        <ele>691.1</ele>
        <time>2021-08-13T07:36:14Z</time>
      </trkpt>
      <trkpt lat="43.97138" lon="6.31149">
        <ele>693.6</ele>
        <time>2021-08-13T07:36:29Z</time>
      </trkpt>
      <trkpt lat="43.9725" lon="6.31198">
        <ele>692</ele>
        <time>2021-08-13T07:36:44Z</time>
      </trkpt>
      <trkpt lat="43.97349" lon="6.3118">
        <ele>689.5</ele>
        <time>2021-08-13T07:36:59Z</time>
      </trkpt>
      <trkpt lat="43.97447" lon="6.31162">
        <ele>688.8</ele>
        <time>2021-08-13T07:37:14Z</time>
      </trkpt>
      <trkpt lat="43.97545" lon="6.31175">
        <ele>693.4</ele>
        <time>2021-08-13T07:37:29Z</time>
      </trkpt>
      <trkpt lat="43.97636" lon="6.3118">
        <ele>697.4</ele>
        <time>2021-08-13T07:37:49Z</time>
      </trkpt>
      <trkpt lat="43.97722" lon="6.31152">
        <ele>696.4</ele>
        <time>2021-08-13T07:38:04Z</time>
      </trkpt>
      <trkpt lat="43.97828" lon="6.31091">
        <ele>692.8</ele>
        <time>2021-08-13T07:38:24Z</time>
      </trkpt>
      <trkpt lat="43.97909" lon="6.31022">
        <ele>691.4</ele>
        <time>2021-08-13T07:38:44Z</time>
      </trkpt>
      <trkpt lat="43.97989" lon="6.30905">
        <ele>696.7</ele>
        <time>2021-08-13T07:39:09Z</time>
      </trkpt>
      <trkpt lat="43.98003" lon="6.30735">
        <ele>698.1</ele>
        <time>2021-08-13T07:39:24Z</time>
      </trkpt>
      <trkpt lat="43.98017" lon="6.30597">
        <ele>697.5</ele>
        <time>2021-08-13T07:39:34Z</time>
      </trkpt>
      <trkpt lat="43.9806" lon="6.30461">
        <ele>697.6</ele>
        <time>2021-08-13T07:39:44Z</time>
      </trkpt>
      <trkpt lat="43.98143" lon="6.30378">
        <ele>696.8</ele>
        <time>2021-08-13T07:39:54Z</time>
      </trkpt>
      <trkpt lat="43.98269" lon="6.30331">
        <ele>696.6</ele>
        <time>2021-08-13T07:40:09Z</time>
      </trkpt>
      <trkpt lat="43.98379" lon="6.30265">
        <ele>687.6</ele>
        <time>2021-08-13T07:40:24Z</time>
      </trkpt>
      <trkpt lat="43.9847" lon="6.30146">
        <ele>682.4</ele>
        <time>2021-08-13T07:40:39Z</time>
      </trkpt>
      <trkpt lat="43.9852" lon="6.29984">
        <ele>678.1</ele>
        <time>2021-08-13T07:40:54Z</time>
      </trkpt>
      <trkpt lat="43.98609" lon="6.29893">
        <ele>673.8</ele>
        <time>2021-08-13T07:41:09Z</time>
      </trkpt>
      <trkpt lat="43.98711" lon="6.29863">
        <ele>672.3</ele>
        <time>2021-08-13T07:41:29Z</time>
      </trkpt>
      <trkpt lat="43.98795" lon="6.29777">
        <ele>673.9</ele>
        <time>2021-08-13T07:41:49Z</time>
      </trkpt>
      <trkpt lat="43.98848" lon="6.29669">
        <ele>674</ele>
        <time>2021-08-13T07:42:04Z</time>
      </trkpt>
      <trkpt lat="43.98964" lon="6.29686">
        <ele>673.4</ele>
        <time>2021-08-13T07:42:19Z</time>
      </trkpt>
      <trkpt lat="43.99061" lon="6.29723">
        <ele>672.7</ele>
        <time>2021-08-13T07:42:29Z</time>
      </trkpt>
      <trkpt lat="43.99152" lon="6.29678">
        <ele>667.1</ele>
        <time>2021-08-13T07:42:39Z</time>
      </trkpt>
      <trkpt lat="43.99229" lon="6.29602">
        <ele>664.2</ele>
        <time>2021-08-13T07:42:49Z</time>
      </trkpt>
      <trkpt lat="43.99262" lon="6.29487">
        <ele>662.6</ele>
        <time>2021-08-13T07:42:59Z</time>
      </trkpt>
      <trkpt lat="43.99314" lon="6.29334">
        <ele>660.4</ele>
        <time>2021-08-13T07:43:14Z</time>
      </trkpt>
      <trkpt lat="43.99426" lon="6.29297">
        <ele>656.2</ele>
        <time>2021-08-13T07:43:29Z</time>
      </trkpt>
      <trkpt lat="43.99549" lon="6.29258">
        <ele>652.7</ele>
        <time>2021-08-13T07:43:44Z</time>
      </trkpt>
      <trkpt lat="43.99656" lon="6.29183">
        <ele>649.1</ele>
        <time>2021-08-13T07:43:59Z</time>
      </trkpt>
      <trkpt lat="43.99768" lon="6.29158">
        <ele>646.4</ele>
        <time>2021-08-13T07:44:14Z</time>
      </trkpt>
      <trkpt lat="43.99876" lon="6.29151">
        <ele>643.3</ele>
        <time>2021-08-13T07:44:34Z</time>
      </trkpt>
      <trkpt lat="43.99966" lon="6.29111">
        <ele>653.2</ele>
        <time>2021-08-13T07:44:54Z</time>
      </trkpt>
      <trkpt lat="44.00031" lon="6.29011">
        <ele>652.8</ele>
        <time>2021-08-13T07:45:09Z</time>
      </trkpt>
      <trkpt lat="44.00064" lon="6.28845">
        <ele>654.1</ele>
        <time>2021-08-13T07:45:24Z</time>
      </trkpt>
      <trkpt lat="44.00119" lon="6.28751">
        <ele>653.6</ele>
        <time>2021-08-13T07:45:34Z</time>
      </trkpt>
      <trkpt lat="44.00221" lon="6.28676">
        <ele>652.1</ele>
        <time>2021-08-13T07:45:49Z</time>
      </trkpt>
      <trkpt lat="44.00326" lon="6.28611">
        <ele>650.8</ele>
        <time>2021-08-13T07:46:04Z</time>
      </trkpt>
      <trkpt lat="44.00419" lon="6.2852">
        <ele>650.2</ele>
        <time>2021-08-13T07:46:19Z</time>
      </trkpt>
      <trkpt lat="44.00533" lon="6.28433">
        <ele>646.4</ele>
        <time>2021-08-13T07:46:34Z</time>
      </trkpt>
      <trkpt lat="44.00631" lon="6.28324">
        <ele>644.2</ele>
        <time>2021-08-13T07:46:49Z</time>
      </trkpt>
      <trkpt lat="44.00696" lon="6.28177">
        <ele>642.8</ele>
        <time>2021-08-13T07:47:04Z</time>
      </trkpt>
      <trkpt lat="44.00747" lon="6.28033">
        <ele>642.5</ele>
        <time>2021-08-13T07:47:19Z</time>
      </trkpt>
      <trkpt lat="44.00777" lon="6.27869">
        <ele>642</ele>
        <time>2021-08-13T07:47:34Z</time>
      </trkpt>
      <trkpt lat="44.00833" lon="6.27765">
        <ele>640.3</ele>
        <time>2021-08-13T07:47:44Z</time>
      </trkpt>
      <trkpt lat="44.00883" lon="6.27626">
        <ele>639.1</ele>
        <time>2021-08-13T07:47:59Z</time>
      </trkpt>
      <trkpt lat="44.00925" lon="6.27488">
        <ele>639.8</ele>
        <time>2021-08-13T07:48:14Z</time>
      </trkpt>
      <trkpt lat="44.00935" lon="6.27321">
        <ele>641.2</ele>
        <time>2021-08-13T07:48:29Z</time>
      </trkpt>
      <trkpt lat="44.00933" lon="6.27191">
        <ele>641.5</ele>
        <time>2021-08-13T07:48:39Z</time>
      </trkpt>
      <trkpt lat="44.00941" lon="6.27062">
        <ele>642.4</ele>
        <time>2021-08-13T07:48:49Z</time>
      </trkpt>
      <trkpt lat="44.0094" lon="6.26934">
        <ele>643</ele>
        <time>2021-08-13T07:48:59Z</time>
      </trkpt>
      <trkpt lat="44.00953" lon="6.26753">
        <ele>642.6</ele>
        <time>2021-08-13T07:49:14Z</time>
      </trkpt>
      <trkpt lat="44.00965" lon="6.26571">
        <ele>638.9</ele>
        <time>2021-08-13T07:49:29Z</time>
      </trkpt>
      <trkpt lat="44.00974" lon="6.26444">
        <ele>637.4</ele>
        <time>2021-08-13T07:49:39Z</time>
      </trkpt>
      <trkpt lat="44.00982" lon="6.2626">
        <ele>635.7</ele>
        <time>2021-08-13T07:49:54Z</time>
      </trkpt>
      <trkpt lat="44.00993" lon="6.26095">
        <ele>637.9</ele>
        <time>2021-08-13T07:50:09Z</time>
      </trkpt>
      <trkpt lat="44.01023" lon="6.25938">
        <ele>640.4</ele>
        <time>2021-08-13T07:50:24Z</time>
      </trkpt>
      <trkpt lat="44.01075" lon="6.25793">
        <ele>639.2</ele>
        <time>2021-08-13T07:50:39Z</time>
      </trkpt>
      <trkpt lat="44.01085" lon="6.2563">
        <ele>640.2</ele>
        <time>2021-08-13T07:50:54Z</time>
      </trkpt>
      <trkpt lat="44.01085" lon="6.25474">
        <ele>642.4</ele>
        <time>2021-08-13T07:51:09Z</time>
      </trkpt>
      <trkpt lat="44.01161" lon="6.25364">
        <ele>643.8</ele>
        <time>2021-08-13T07:51:24Z</time>
      </trkpt>
      <trkpt lat="44.01271" lon="6.25315">
        <ele>645.2</ele>
        <time>2021-08-13T07:51:39Z</time>
      </trkpt>
      <trkpt lat="44.01669" lon="6.25262">
        <ele>614.8</ele>
        <time>2021-08-13T07:52:23Z</time>
      </trkpt>
      <trkpt lat="44.01689" lon="6.25092">
        <ele>618.4</ele>
        <time>2021-08-13T07:52:38Z</time>
      </trkpt>
      <trkpt lat="44.01691" lon="6.24908">
        <ele>619.3</ele>
        <time>2021-08-13T07:52:53Z</time>
      </trkpt>
      <trkpt lat="44.01698" lon="6.24737">
        <ele>620</ele>
        <time>2021-08-13T07:53:08Z</time>
      </trkpt>
      <trkpt lat="44.01703" lon="6.24557">
        <ele>620.5</ele>
        <time>2021-08-13T07:53:23Z</time>
      </trkpt>
      <trkpt lat="44.0171" lon="6.24387">
        <ele>622.2</ele>
        <time>2021-08-13T07:53:38Z</time>
      </trkpt>
      <trkpt lat="44.01699" lon="6.24241">
        <ele>623</ele>
        <time>2021-08-13T07:53:53Z</time>
      </trkpt>
      <trkpt lat="44.01672" lon="6.24115">
        <ele>624</ele>
        <time>2021-08-13T07:54:08Z</time>
      </trkpt>
      <trkpt lat="44.01663" lon="6.23967">
        <ele>626.6</ele>
        <time>2021-08-13T07:54:28Z</time>
      </trkpt>
      <trkpt lat="44.01662" lon="6.23842">
        <ele>631</ele>
        <time>2021-08-13T07:54:48Z</time>
      </trkpt>
      <trkpt lat="44.01651" lon="6.23716">
        <ele>634.2</ele>
        <time>2021-08-13T07:55:13Z</time>
      </trkpt>
      <trkpt lat="44.0162" lon="6.23579">
        <ele>642.3</ele>
        <time>2021-08-13T07:55:38Z</time>
      </trkpt>
      <trkpt lat="44.01587" lon="6.23439">
        <ele>651</ele>
        <time>2021-08-13T07:56:03Z</time>
      </trkpt>
      <trkpt lat="44.01568" lon="6.23285">
        <ele>659</ele>
        <time>2021-08-13T07:56:23Z</time>
      </trkpt>
      <trkpt lat="44.01561" lon="6.2314">
        <ele>665.3</ele>
        <time>2021-08-13T07:56:38Z</time>
      </trkpt>
      <trkpt lat="44.01567" lon="6.22976">
        <ele>670.5</ele>
        <time>2021-08-13T07:56:53Z</time>
      </trkpt>
      <trkpt lat="44.01575" lon="6.22793">
        <ele>675.9</ele>
        <time>2021-08-13T07:57:08Z</time>
      </trkpt>
      <trkpt lat="44.01546" lon="6.22608">
        <ele>680</ele>
        <time>2021-08-13T07:57:23Z</time>
      </trkpt>
      <trkpt lat="44.01461" lon="6.22457">
        <ele>686.3</ele>
        <time>2021-08-13T07:57:38Z</time>
      </trkpt>
      <trkpt lat="44.01377" lon="6.22332">
        <ele>692.1</ele>
        <time>2021-08-13T07:57:53Z</time>
      </trkpt>
      <trkpt lat="44.01278" lon="6.22212">
        <ele>697.2</ele>
        <time>2021-08-13T07:58:08Z</time>
      </trkpt>
      <trkpt lat="44.01178" lon="6.22089">
        <ele>702.1</ele>
        <time>2021-08-13T07:58:23Z</time>
      </trkpt>
      <trkpt lat="44.01082" lon="6.2198">
        <ele>706.6</ele>
        <time>2021-08-13T07:58:38Z</time>
      </trkpt>
      <trkpt lat="44.00976" lon="6.21878">
        <ele>708.6</ele>
        <time>2021-08-13T07:58:53Z</time>
      </trkpt>
      <trkpt lat="44.00956" lon="6.21706">
        <ele>703.5</ele>
        <time>2021-08-13T07:59:08Z</time>
      </trkpt>
      <trkpt lat="44.01004" lon="6.21597">
        <ele>700.4</ele>
        <time>2021-08-13T07:59:18Z</time>
      </trkpt>
      <trkpt lat="44.01092" lon="6.21489">
        <ele>696.5</ele>
        <time>2021-08-13T07:59:33Z</time>
      </trkpt>
      <trkpt lat="44.01174" lon="6.21434">
        <ele>690.5</ele>
        <time>2021-08-13T07:59:53Z</time>
      </trkpt>
      <trkpt lat="44.01268" lon="6.21387">
        <ele>648</ele>
        <time>2021-08-13T08:00:28Z</time>
      </trkpt>
      <trkpt lat="44.01365" lon="6.2137">
        <ele>620.1</ele>
        <time>2021-08-13T08:01:03Z</time>
      </trkpt>
      <trkpt lat="44.01456" lon="6.21344">
        <ele>621</ele>
        <time>2021-08-13T08:01:38Z</time>
      </trkpt>
      <trkpt lat="44.01466" lon="6.21214">
        <ele>628</ele>
        <time>2021-08-13T08:07:19Z</time>
      </trkpt>
      <trkpt lat="44.01425" lon="6.21048">
        <ele>628.2</ele>
        <time>2021-08-13T08:07:34Z</time>
      </trkpt>
      <trkpt lat="44.01335" lon="6.2102">
        <ele>625.7</ele>
        <time>2021-08-13T08:07:44Z</time>
      </trkpt>
      <trkpt lat="44.01229" lon="6.20932">
        <ele>623.6</ele>
        <time>2021-08-13T08:07:59Z</time>
      </trkpt>
      <trkpt lat="44.0117" lon="6.2079">
        <ele>621.8</ele>
        <time>2021-08-13T08:08:14Z</time>
      </trkpt>
      <trkpt lat="44.01061" lon="6.20681">
        <ele>620.3</ele>
        <time>2021-08-13T08:08:29Z</time>
      </trkpt>
      <trkpt lat="44.0099" lon="6.20595">
        <ele>619.2</ele>
        <time>2021-08-13T08:08:39Z</time>
      </trkpt>
      <trkpt lat="44.00909" lon="6.20523">
        <ele>618.1</ele>
        <time>2021-08-13T08:08:49Z</time>
      </trkpt>
      <trkpt lat="44.00831" lon="6.20433">
        <ele>616.8</ele>
        <time>2021-08-13T08:08:59Z</time>
      </trkpt>
      <trkpt lat="44.00762" lon="6.20342">
        <ele>616.2</ele>
        <time>2021-08-13T08:09:09Z</time>
      </trkpt>
      <trkpt lat="44.00692" lon="6.20251">
        <ele>615</ele>
        <time>2021-08-13T08:09:19Z</time>
      </trkpt>
      <trkpt lat="44.0062" lon="6.20163">
        <ele>611.6</ele>
        <time>2021-08-13T08:09:29Z</time>
      </trkpt>
      <trkpt lat="44.00522" lon="6.20055">
        <ele>604.5</ele>
        <time>2021-08-13T08:09:44Z</time>
      </trkpt>
      <trkpt lat="44.00438" lon="6.19982">
        <ele>599.9</ele>
        <time>2021-08-13T08:09:59Z</time>
      </trkpt>
      <trkpt lat="44.00336" lon="6.19917">
        <ele>595.3</ele>
        <time>2021-08-13T08:10:19Z</time>
      </trkpt>
      <trkpt lat="44.00236" lon="6.19876">
        <ele>591.9</ele>
        <time>2021-08-13T08:10:39Z</time>
      </trkpt>
      <trkpt lat="44.00121" lon="6.19808">
        <ele>587.4</ele>
        <time>2021-08-13T08:10:59Z</time>
      </trkpt>
      <trkpt lat="44.00015" lon="6.19759">
        <ele>586</ele>
        <time>2021-08-13T08:11:14Z</time>
      </trkpt>
      <trkpt lat="43.99906" lon="6.19706">
        <ele>584</ele>
        <time>2021-08-13T08:11:29Z</time>
      </trkpt>
      <trkpt lat="43.99805" lon="6.1967">
        <ele>582.3</ele>
        <time>2021-08-13T08:11:44Z</time>
      </trkpt>
      <trkpt lat="43.99692" lon="6.19641">
        <ele>581.3</ele>
        <time>2021-08-13T08:11:59Z</time>
      </trkpt>
      <trkpt lat="43.99603" lon="6.19605">
        <ele>579.9</ele>
        <time>2021-08-13T08:12:09Z</time>
      </trkpt>
      <trkpt lat="43.99505" lon="6.19545">
        <ele>581.7</ele>
        <time>2021-08-13T08:23:05Z</time>
      </trkpt>
      <trkpt lat="43.99393" lon="6.19535">
        <ele>581.9</ele>
        <time>2021-08-13T08:23:20Z</time>
      </trkpt>
      <trkpt lat="43.99269" lon="6.19572">
        <ele>581.8</ele>
        <time>2021-08-13T08:23:35Z</time>
      </trkpt>
      <trkpt lat="43.99177" lon="6.19558">
        <ele>580.5</ele>
        <time>2021-08-13T08:23:45Z</time>
      </trkpt>
      <trkpt lat="43.99085" lon="6.19549">
        <ele>579</ele>
        <time>2021-08-13T08:23:55Z</time>
      </trkpt>
      <trkpt lat="43.99052" lon="6.19682">
        <ele>574</ele>
        <time>2021-08-13T08:24:10Z</time>
      </trkpt>
      <trkpt lat="43.99041" lon="6.19824">
        <ele>569.1</ele>
        <time>2021-08-13T08:24:25Z</time>
      </trkpt>
      <trkpt lat="43.98949" lon="6.19878">
        <ele>560.6</ele>
        <time>2021-08-13T08:24:40Z</time>
      </trkpt>
      <trkpt lat="43.98838" lon="6.1985">
        <ele>555.6</ele>
        <time>2021-08-13T08:24:55Z</time>
      </trkpt>
      <trkpt lat="43.98723" lon="6.19813">
        <ele>553.1</ele>
        <time>2021-08-13T08:25:10Z</time>
      </trkpt>
      <trkpt lat="43.98602" lon="6.19769">
        <ele>551.8</ele>
        <time>2021-08-13T08:25:25Z</time>
      </trkpt>
      <trkpt lat="43.98493" lon="6.19729">
        <ele>555.7</ele>
        <time>2021-08-13T08:25:40Z</time>
      </trkpt>
      <trkpt lat="43.98403" lon="6.19701">
        <ele>558.1</ele>
        <time>2021-08-13T08:25:55Z</time>
      </trkpt>
      <trkpt lat="43.98301" lon="6.19689">
        <ele>560.9</ele>
        <time>2021-08-13T08:26:10Z</time>
      </trkpt>
      <trkpt lat="43.98173" lon="6.19671">
        <ele>562.8</ele>
        <time>2021-08-13T08:26:25Z</time>
      </trkpt>
      <trkpt lat="43.98059" lon="6.19672">
        <ele>560</ele>
        <time>2021-08-13T08:26:40Z</time>
      </trkpt>
      <trkpt lat="43.97937" lon="6.19697">
        <ele>558</ele>
        <time>2021-08-13T08:26:55Z</time>
      </trkpt>
      <trkpt lat="43.97832" lon="6.19686">
        <ele>551.2</ele>
        <time>2021-08-13T08:27:10Z</time>
      </trkpt>
      <trkpt lat="43.97733" lon="6.19621">
        <ele>548.4</ele>
        <time>2021-08-13T08:27:25Z</time>
      </trkpt>
      <trkpt lat="43.97656" lon="6.19527">
        <ele>546</ele>
        <time>2021-08-13T08:28:51Z</time>
      </trkpt>
      <trkpt lat="43.97544" lon="6.19485">
        <ele>546.1</ele>
        <time>2021-08-13T08:29:11Z</time>
      </trkpt>
      <trkpt lat="43.97444" lon="6.19432">
        <ele>546.6</ele>
        <time>2021-08-13T08:29:26Z</time>
      </trkpt>
      <trkpt lat="43.97352" lon="6.19383">
        <ele>546.9</ele>
        <time>2021-08-13T08:29:41Z</time>
      </trkpt>
      <trkpt lat="43.97257" lon="6.19306">
        <ele>548.2</ele>
        <time>2021-08-13T08:30:06Z</time>
      </trkpt>
      <trkpt lat="43.97147" lon="6.19247">
        <ele>546.5</ele>
        <time>2021-08-13T08:30:31Z</time>
      </trkpt>
      <trkpt lat="43.97021" lon="6.19197">
        <ele>543.7</ele>
        <time>2021-08-13T08:30:46Z</time>
      </trkpt>
      <trkpt lat="43.96931" lon="6.19158">
        <ele>542.4</ele>
        <time>2021-08-13T08:30:56Z</time>
      </trkpt>
      <trkpt lat="43.96829" lon="6.19111">
        <ele>538.1</ele>
        <time>2021-08-13T08:31:11Z</time>
      </trkpt>
      <trkpt lat="43.96712" lon="6.19047">
        <ele>532.4</ele>
        <time>2021-08-13T08:31:31Z</time>
      </trkpt>
      <trkpt lat="43.9662" lon="6.18989">
        <ele>530.8</ele>
        <time>2021-08-13T08:31:46Z</time>
      </trkpt>
      <trkpt lat="43.9653" lon="6.18936">
        <ele>528.8</ele>
        <time>2021-08-13T08:32:01Z</time>
      </trkpt>
      <trkpt lat="43.96413" lon="6.18882">
        <ele>529.2</ele>
        <time>2021-08-13T08:32:16Z</time>
      </trkpt>
      <trkpt lat="43.96314" lon="6.18828">
        <ele>529.3</ele>
        <time>2021-08-13T08:32:26Z</time>
      </trkpt>
      <trkpt lat="43.96228" lon="6.18776">
        <ele>527.4</ele>
        <time>2021-08-13T08:32:36Z</time>
      </trkpt>
      <trkpt lat="43.96119" lon="6.187">
        <ele>526.1</ele>
        <time>2021-08-13T08:32:51Z</time>
      </trkpt>
      <trkpt lat="43.96041" lon="6.18623">
        <ele>525</ele>
        <time>2021-08-13T08:33:06Z</time>
      </trkpt>
      <trkpt lat="43.95942" lon="6.18526">
        <ele>522.9</ele>
        <time>2021-08-13T08:33:21Z</time>
      </trkpt>
      <trkpt lat="43.95857" lon="6.18459">
        <ele>521.2</ele>
        <time>2021-08-13T08:33:31Z</time>
      </trkpt>
      <trkpt lat="43.95756" lon="6.18382">
        <ele>518.6</ele>
        <time>2021-08-13T08:33:46Z</time>
      </trkpt>
      <trkpt lat="43.9566" lon="6.18296">
        <ele>516.7</ele>
        <time>2021-08-13T08:34:01Z</time>
      </trkpt>
      <trkpt lat="43.95561" lon="6.18203">
        <ele>514.2</ele>
        <time>2021-08-13T08:34:16Z</time>
      </trkpt>
      <trkpt lat="43.95458" lon="6.18137">
        <ele>511.4</ele>
        <time>2021-08-13T08:34:31Z</time>
      </trkpt>
      <trkpt lat="43.95357" lon="6.18061">
        <ele>509.1</ele>
        <time>2021-08-13T08:34:46Z</time>
      </trkpt>
      <trkpt lat="43.95264" lon="6.17987">
        <ele>507.6</ele>
        <time>2021-08-13T08:35:01Z</time>
      </trkpt>
      <trkpt lat="43.95161" lon="6.17887">
        <ele>505.4</ele>
        <time>2021-08-13T08:35:16Z</time>
      </trkpt>
      <trkpt lat="43.95051" lon="6.17781">
        <ele>503.8</ele>
        <time>2021-08-13T08:35:31Z</time>
      </trkpt>
      <trkpt lat="43.94931" lon="6.17692">
        <ele>501.4</ele>
        <time>2021-08-13T08:35:46Z</time>
      </trkpt>
      <trkpt lat="43.94814" lon="6.17627">
        <ele>499.2</ele>
        <time>2021-08-13T08:36:01Z</time>
      </trkpt>
      <trkpt lat="43.94715" lon="6.17521">
        <ele>496.8</ele>
        <time>2021-08-13T08:36:16Z</time>
      </trkpt>
      <trkpt lat="43.94616" lon="6.17399">
        <ele>494.9</ele>
        <time>2021-08-13T08:36:31Z</time>
      </trkpt>
      <trkpt lat="43.94503" lon="6.17321">
        <ele>496.1</ele>
        <time>2021-08-13T08:36:46Z</time>
      </trkpt>
      <trkpt lat="43.94423" lon="6.17218">
        <ele>498.5</ele>
        <time>2021-08-13T08:37:01Z</time>
      </trkpt>
      <trkpt lat="43.94356" lon="6.17098">
        <ele>497.9</ele>
        <time>2021-08-13T08:37:16Z</time>
      </trkpt>
      <trkpt lat="43.9427" lon="6.16982">
        <ele>497.3</ele>
        <time>2021-08-13T08:37:41Z</time>
      </trkpt>
      <trkpt lat="43.94177" lon="6.16956">
        <ele>505.6</ele>
        <time>2021-08-13T08:38:19Z</time>
      </trkpt>
      <trkpt lat="43.94119" lon="6.16812">
        <ele>513</ele>
        <time>2021-08-13T08:39:29Z</time>
      </trkpt>
      <trkpt lat="43.94066" lon="6.16658">
        <ele>514.6</ele>
        <time>2021-08-13T08:39:44Z</time>
      </trkpt>
      <trkpt lat="43.94018" lon="6.16514">
        <ele>515.6</ele>
        <time>2021-08-13T08:39:59Z</time>
      </trkpt>
      <trkpt lat="43.93935" lon="6.16379">
        <ele>515.4</ele>
        <time>2021-08-13T08:40:14Z</time>
      </trkpt>
      <trkpt lat="43.93825" lon="6.16278">
        <ele>514.5</ele>
        <time>2021-08-13T08:40:29Z</time>
      </trkpt>
      <trkpt lat="43.93737" lon="6.16161">
        <ele>513.2</ele>
        <time>2021-08-13T08:40:44Z</time>
      </trkpt>
      <trkpt lat="43.9365" lon="6.16027">
        <ele>511.5</ele>
        <time>2021-08-13T08:40:59Z</time>
      </trkpt>
      <trkpt lat="43.9358" lon="6.15894">
        <ele>509.7</ele>
        <time>2021-08-13T08:41:14Z</time>
      </trkpt>
      <trkpt lat="43.93516" lon="6.15757">
        <ele>510.6</ele>
        <time>2021-08-13T08:41:29Z</time>
      </trkpt>
      <trkpt lat="43.93408" lon="6.15629">
        <ele>509.1</ele>
        <time>2021-08-13T08:41:44Z</time>
      </trkpt>
      <trkpt lat="43.93327" lon="6.15547">
        <ele>508.3</ele>
        <time>2021-08-13T08:41:54Z</time>
      </trkpt>
      <trkpt lat="43.93247" lon="6.15443">
        <ele>507.3</ele>
        <time>2021-08-13T08:42:09Z</time>
      </trkpt>
      <trkpt lat="43.93149" lon="6.15327">
        <ele>503.6</ele>
        <time>2021-08-13T08:42:24Z</time>
      </trkpt>
      <trkpt lat="43.93075" lon="6.15204">
        <ele>501.4</ele>
        <time>2021-08-13T08:42:37Z</time>
      </trkpt>
      <trkpt lat="43.9304" lon="6.1507">
        <ele>499</ele>
        <time>2021-08-13T08:42:52Z</time>
      </trkpt>
      <trkpt lat="43.93006" lon="6.14915">
        <ele>495.1</ele>
        <time>2021-08-13T08:43:13Z</time>
      </trkpt>
      <trkpt lat="43.92967" lon="6.14746">
        <ele>492.6</ele>
        <time>2021-08-13T08:43:28Z</time>
      </trkpt>
      <trkpt lat="43.92897" lon="6.14616">
        <ele>489.5</ele>
        <time>2021-08-13T08:43:43Z</time>
      </trkpt>
      <trkpt lat="43.92867" lon="6.14486">
        <ele>487.6</ele>
        <time>2021-08-13T08:43:58Z</time>
      </trkpt>
      <trkpt lat="43.9286" lon="6.14343">
        <ele>491.3</ele>
        <time>2021-08-13T08:44:18Z</time>
      </trkpt>
      <trkpt lat="43.92783" lon="6.14204">
        <ele>494</ele>
        <time>2021-08-13T08:44:38Z</time>
      </trkpt>
      <trkpt lat="43.92678" lon="6.14126">
        <ele>495.4</ele>
        <time>2021-08-13T08:44:53Z</time>
      </trkpt>
      <trkpt lat="43.92546" lon="6.14103">
        <ele>491.3</ele>
        <time>2021-08-13T08:45:08Z</time>
      </trkpt>
      <trkpt lat="43.92451" lon="6.14089">
        <ele>490.2</ele>
        <time>2021-08-13T08:45:18Z</time>
      </trkpt>
      <trkpt lat="43.92361" lon="6.13986">
        <ele>488.3</ele>
        <time>2021-08-13T08:45:33Z</time>
      </trkpt>
      <trkpt lat="43.92269" lon="6.1388">
        <ele>487.1</ele>
        <time>2021-08-13T08:45:48Z</time>
      </trkpt>
      <trkpt lat="43.92212" lon="6.13728">
        <ele>487.7</ele>
        <time>2021-08-13T08:46:03Z</time>
      </trkpt>
      <trkpt lat="43.92189" lon="6.13593">
        <ele>485.4</ele>
        <time>2021-08-13T08:46:18Z</time>
      </trkpt>
      <trkpt lat="43.92135" lon="6.13477">
        <ele>481.6</ele>
        <time>2021-08-13T08:46:38Z</time>
      </trkpt>
      <trkpt lat="43.92038" lon="6.13399">
        <ele>481.2</ele>
        <time>2021-08-13T08:46:58Z</time>
      </trkpt>
      <trkpt lat="43.91937" lon="6.13315">
        <ele>482.2</ele>
        <time>2021-08-13T08:57:30Z</time>
      </trkpt>
      <trkpt lat="43.9186" lon="6.13226">
        <ele>480.7</ele>
        <time>2021-08-13T08:57:45Z</time>
      </trkpt>
      <trkpt lat="43.9179" lon="6.13119">
        <ele>482.7</ele>
        <time>2021-08-13T08:58:00Z</time>
      </trkpt>
      <trkpt lat="43.91718" lon="6.13015">
        <ele>481.8</ele>
        <time>2021-08-13T08:58:15Z</time>
      </trkpt>
      <trkpt lat="43.91644" lon="6.12903">
        <ele>482.1</ele>
        <time>2021-08-13T08:58:30Z</time>
      </trkpt>
      <trkpt lat="43.9157" lon="6.12808">
        <ele>480.1</ele>
        <time>2021-08-13T08:58:45Z</time>
      </trkpt>
      <trkpt lat="43.91477" lon="6.12702">
        <ele>481.6</ele>
        <time>2021-08-13T08:59:05Z</time>
      </trkpt>
      <trkpt lat="43.91426" lon="6.12579">
        <ele>483</ele>
        <time>2021-08-13T08:59:20Z</time>
      </trkpt>
      <trkpt lat="43.9138" lon="6.12466">
        <ele>485.9</ele>
        <time>2021-08-13T08:59:35Z</time>
      </trkpt>
      <trkpt lat="43.91316" lon="6.12312">
        <ele>481.9</ele>
        <time>2021-08-13T08:59:50Z</time>
      </trkpt>
      <trkpt lat="43.9125" lon="6.12162">
        <ele>474.9</ele>
        <time>2021-08-13T09:00:05Z</time>
      </trkpt>
      <trkpt lat="43.91198" lon="6.12014">
        <ele>474.8</ele>
        <time>2021-08-13T09:00:20Z</time>
      </trkpt>
      <trkpt lat="43.91161" lon="6.11881">
        <ele>475.6</ele>
        <time>2021-08-13T09:00:35Z</time>
      </trkpt>
      <trkpt lat="43.91169" lon="6.11711">
        <ele>471.7</ele>
        <time>2021-08-13T09:00:50Z</time>
      </trkpt>
      <trkpt lat="43.9116" lon="6.1155">
        <ele>466.2</ele>
        <time>2021-08-13T09:01:05Z</time>
      </trkpt>
      <trkpt lat="43.91138" lon="6.11394">
        <ele>460.9</ele>
        <time>2021-08-13T09:01:20Z</time>
      </trkpt>
      <trkpt lat="43.91104" lon="6.11259">
        <ele>460.1</ele>
        <time>2021-08-13T09:01:35Z</time>
      </trkpt>
      <trkpt lat="43.91065" lon="6.11129">
        <ele>462.7</ele>
        <time>2021-08-13T09:01:50Z</time>
      </trkpt>
      <trkpt lat="43.9102" lon="6.10999">
        <ele>466.2</ele>
        <time>2021-08-13T09:02:05Z</time>
      </trkpt>
      <trkpt lat="43.9096" lon="6.10877">
        <ele>466.9</ele>
        <time>2021-08-13T09:02:20Z</time>
      </trkpt>
      <trkpt lat="43.90896" lon="6.10772">
        <ele>463.7</ele>
        <time>2021-08-13T09:02:35Z</time>
      </trkpt>
      <trkpt lat="43.90833" lon="6.10664">
        <ele>462.3</ele>
        <time>2021-08-13T09:02:50Z</time>
      </trkpt>
      <trkpt lat="43.9078" lon="6.10533">
        <ele>461.4</ele>
        <time>2021-08-13T09:03:05Z</time>
      </trkpt>
      <trkpt lat="43.90728" lon="6.10401">
        <ele>460.6</ele>
        <time>2021-08-13T09:03:20Z</time>
      </trkpt>
      <trkpt lat="43.90678" lon="6.10272">
        <ele>460.2</ele>
        <time>2021-08-13T09:03:35Z</time>
      </trkpt>
      <trkpt lat="43.90648" lon="6.10131">
        <ele>457.1</ele>
        <time>2021-08-13T09:03:50Z</time>
      </trkpt>
      <trkpt lat="43.90629" lon="6.09984">
        <ele>452.2</ele>
        <time>2021-08-13T09:04:05Z</time>
      </trkpt>
      <trkpt lat="43.90623" lon="6.09837">
        <ele>452.6</ele>
        <time>2021-08-13T09:04:20Z</time>
      </trkpt>
      <trkpt lat="43.90621" lon="6.09707">
        <ele>453.6</ele>
        <time>2021-08-13T09:04:35Z</time>
      </trkpt>
      <trkpt lat="43.90609" lon="6.09573">
        <ele>450.3</ele>
        <time>2021-08-13T09:04:50Z</time>
      </trkpt>
      <trkpt lat="43.90596" lon="6.09429">
        <ele>449.1</ele>
        <time>2021-08-13T09:05:05Z</time>
      </trkpt>
      <trkpt lat="43.90582" lon="6.09282">
        <ele>448.8</ele>
        <time>2021-08-13T09:05:20Z</time>
      </trkpt>
      <trkpt lat="43.90568" lon="6.09154">
        <ele>449.8</ele>
        <time>2021-08-13T09:05:35Z</time>
      </trkpt>
      <trkpt lat="43.90545" lon="6.08985">
        <ele>450.5</ele>
        <time>2021-08-13T09:05:55Z</time>
      </trkpt>
      <trkpt lat="43.90509" lon="6.08841">
        <ele>449.4</ele>
        <time>2021-08-13T09:06:10Z</time>
      </trkpt>
      <trkpt lat="43.90501" lon="6.0869">
        <ele>445.4</ele>
        <time>2021-08-13T09:06:25Z</time>
      </trkpt>
      <trkpt lat="43.90508" lon="6.08518">
        <ele>442.1</ele>
        <time>2021-08-13T09:06:40Z</time>
      </trkpt>
      <trkpt lat="43.90511" lon="6.08373">
        <ele>437.8</ele>
        <time>2021-08-13T09:06:55Z</time>
      </trkpt>
      <trkpt lat="43.90513" lon="6.08232">
        <ele>436.2</ele>
        <time>2021-08-13T09:07:10Z</time>
      </trkpt>
      <trkpt lat="43.90493" lon="6.08085">
        <ele>439.6</ele>
        <time>2021-08-13T09:07:25Z</time>
      </trkpt>
      <trkpt lat="43.90472" lon="6.07944">
        <ele>438.4</ele>
        <time>2021-08-13T09:07:40Z</time>
      </trkpt>
      <trkpt lat="43.90458" lon="6.07805">
        <ele>436.2</ele>
        <time>2021-08-13T09:07:55Z</time>
      </trkpt>
      <trkpt lat="43.90462" lon="6.07674">
        <ele>437</ele>
        <time>2021-08-13T09:08:10Z</time>
      </trkpt>
      <trkpt lat="43.90463" lon="6.07548">
        <ele>436.8</ele>
        <time>2021-08-13T09:08:25Z</time>
      </trkpt>
      <trkpt lat="43.90433" lon="6.07419">
        <ele>434.2</ele>
        <time>2021-08-13T09:08:40Z</time>
      </trkpt>
      <trkpt lat="43.90428" lon="6.07259">
        <ele>433.2</ele>
        <time>2021-08-13T09:08:55Z</time>
      </trkpt>
      <trkpt lat="43.90424" lon="6.07091">
        <ele>432.3</ele>
        <time>2021-08-13T09:09:10Z</time>
      </trkpt>
      <trkpt lat="43.90409" lon="6.06929">
        <ele>430.7</ele>
        <time>2021-08-13T09:09:25Z</time>
      </trkpt>
      <trkpt lat="43.90394" lon="6.06772">
        <ele>427.5</ele>
        <time>2021-08-13T09:09:40Z</time>
      </trkpt>
      <trkpt lat="43.90378" lon="6.06604">
        <ele>424.8</ele>
        <time>2021-08-13T09:09:55Z</time>
      </trkpt>
      <trkpt lat="43.90364" lon="6.06441">
        <ele>431.4</ele>
        <time>2021-08-13T09:10:10Z</time>
      </trkpt>
      <trkpt lat="43.9035" lon="6.06287">
        <ele>431.3</ele>
        <time>2021-08-13T09:10:25Z</time>
      </trkpt>
      <trkpt lat="43.90342" lon="6.06133">
        <ele>431.6</ele>
        <time>2021-08-13T09:10:40Z</time>
      </trkpt>
      <trkpt lat="43.90325" lon="6.05984">
        <ele>430.4</ele>
        <time>2021-08-13T09:10:55Z</time>
      </trkpt>
      <trkpt lat="43.90298" lon="6.05837">
        <ele>426.7</ele>
        <time>2021-08-13T09:11:10Z</time>
      </trkpt>
      <trkpt lat="43.90268" lon="6.05683">
        <ele>420.7</ele>
        <time>2021-08-13T09:11:25Z</time>
      </trkpt>
      <trkpt lat="43.90231" lon="6.0554">
        <ele>417.6</ele>
        <time>2021-08-13T09:11:40Z</time>
      </trkpt>
      <trkpt lat="43.90193" lon="6.05414">
        <ele>419.6</ele>
        <time>2021-08-13T09:11:55Z</time>
      </trkpt>
      <trkpt lat="43.90147" lon="6.05294">
        <ele>421.9</ele>
        <time>2021-08-13T09:12:10Z</time>
      </trkpt>
      <trkpt lat="43.90099" lon="6.05182">
        <ele>421.1</ele>
        <time>2021-08-13T09:12:25Z</time>
      </trkpt>
      <trkpt lat="43.90014" lon="6.0506">
        <ele>421</ele>
        <time>2021-08-13T09:12:45Z</time>
      </trkpt>
      <trkpt lat="43.89948" lon="6.04955">
        <ele>420</ele>
        <time>2021-08-13T09:13:00Z</time>
      </trkpt>
      <trkpt lat="43.8989" lon="6.04813">
        <ele>419.8</ele>
        <time>2021-08-13T09:13:20Z</time>
      </trkpt>
      <trkpt lat="43.89876" lon="6.0468">
        <ele>418.8</ele>
        <time>2021-08-13T09:13:35Z</time>
      </trkpt>
      <trkpt lat="43.89912" lon="6.0455">
        <ele>413.9</ele>
        <time>2021-08-13T09:13:50Z</time>
      </trkpt>
      <trkpt lat="43.89887" lon="6.04389">
        <ele>408.8</ele>
        <time>2021-08-13T09:14:05Z</time>
      </trkpt>
      <trkpt lat="43.89862" lon="6.04233">
        <ele>408.8</ele>
        <time>2021-08-13T09:14:20Z</time>
      </trkpt>
      <trkpt lat="43.89804" lon="6.04117">
        <ele>407.6</ele>
        <time>2021-08-13T09:14:35Z</time>
      </trkpt>
      <trkpt lat="43.8974" lon="6.04">
        <ele>407.2</ele>
        <time>2021-08-13T09:14:55Z</time>
      </trkpt>
      <trkpt lat="43.89667" lon="6.03865">
        <ele>404.8</ele>
        <time>2021-08-13T09:17:24Z</time>
      </trkpt>
      <trkpt lat="43.89606" lon="6.03746">
        <ele>401.6</ele>
        <time>2021-08-13T09:17:39Z</time>
      </trkpt>
      <trkpt lat="43.89567" lon="6.03611">
        <ele>399.7</ele>
        <time>2021-08-13T09:17:54Z</time>
      </trkpt>
      <trkpt lat="43.89523" lon="6.03483">
        <ele>399.4</ele>
        <time>2021-08-13T09:18:09Z</time>
      </trkpt>
      <trkpt lat="43.89444" lon="6.0338">
        <ele>399.7</ele>
        <time>2021-08-13T09:18:29Z</time>
      </trkpt>
      <trkpt lat="43.89392" lon="6.03264">
        <ele>402.9</ele>
        <time>2021-08-13T09:18:59Z</time>
      </trkpt>
      <trkpt lat="43.89378" lon="6.03122">
        <ele>410.5</ele>
        <time>2021-08-13T09:19:34Z</time>
      </trkpt>
      <trkpt lat="43.89346" lon="6.02977">
        <ele>414.5</ele>
        <time>2021-08-13T09:20:04Z</time>
      </trkpt>
      <trkpt lat="43.89314" lon="6.02855">
        <ele>420.2</ele>
        <time>2021-08-13T09:20:29Z</time>
      </trkpt>
      <trkpt lat="43.89276" lon="6.02698">
        <ele>425.8</ele>
        <time>2021-08-13T09:20:54Z</time>
      </trkpt>
      <trkpt lat="43.89248" lon="6.02564">
        <ele>425.5</ele>
        <time>2021-08-13T09:21:04Z</time>
      </trkpt>
      <trkpt lat="43.89202" lon="6.02421">
        <ele>426.4</ele>
        <time>2021-08-13T09:21:14Z</time>
      </trkpt>
      <trkpt lat="43.89166" lon="6.02299">
        <ele>427.1</ele>
        <time>2021-08-13T09:21:24Z</time>
      </trkpt>
      <trkpt lat="43.89116" lon="6.02135">
        <ele>428.7</ele>
        <time>2021-08-13T09:21:39Z</time>
      </trkpt>
      <trkpt lat="43.89095" lon="6.02001">
        <ele>429.3</ele>
        <time>2021-08-13T09:21:54Z</time>
      </trkpt>
      <trkpt lat="43.89075" lon="6.01868">
        <ele>422</ele>
        <time>2021-08-13T09:22:14Z</time>
      </trkpt>
      <trkpt lat="43.89097" lon="6.01726">
        <ele>410</ele>
        <time>2021-08-13T09:22:34Z</time>
      </trkpt>
      <trkpt lat="43.89088" lon="6.01551">
        <ele>398.5</ele>
        <time>2021-08-13T09:22:49Z</time>
      </trkpt>
      <trkpt lat="43.89064" lon="6.01425">
        <ele>390.2</ele>
        <time>2021-08-13T09:22:59Z</time>
      </trkpt>
      <trkpt lat="43.89029" lon="6.01252">
        <ele>380.5</ele>
        <time>2021-08-13T09:23:14Z</time>
      </trkpt>
      <trkpt lat="43.88996" lon="6.01105">
        <ele>372.4</ele>
        <time>2021-08-13T09:23:29Z</time>
      </trkpt>
      <trkpt lat="43.88959" lon="6.00967">
        <ele>361.7</ele>
        <time>2021-08-13T09:23:49Z</time>
      </trkpt>
      <trkpt lat="43.8892" lon="6.00836">
        <ele>355.7</ele>
        <time>2021-08-13T09:24:04Z</time>
      </trkpt>
      <trkpt lat="43.88889" lon="6.00676">
        <ele>356.1</ele>
        <time>2021-08-13T09:24:19Z</time>
      </trkpt>
      <trkpt lat="43.88852" lon="6.00534">
        <ele>352.9</ele>
        <time>2021-08-13T09:24:34Z</time>
      </trkpt>
      <trkpt lat="43.88837" lon="6.00362">
        <ele>370.3</ele>
        <time>2021-08-13T09:24:49Z</time>
      </trkpt>
      <trkpt lat="43.88827" lon="6.00198">
        <ele>376.7</ele>
        <time>2021-08-13T09:25:09Z</time>
      </trkpt>
      <trkpt lat="43.88794" lon="6.00039">
        <ele>379.6</ele>
        <time>2021-08-13T09:25:29Z</time>
      </trkpt>
      <trkpt lat="43.88761" lon="5.99913">
        <ele>382.1</ele>
        <time>2021-08-13T09:25:49Z</time>
      </trkpt>
      <trkpt lat="43.88696" lon="5.99782">
        <ele>383.7</ele>
        <time>2021-08-13T09:26:14Z</time>
      </trkpt>
      <trkpt lat="43.88656" lon="5.99651">
        <ele>382.8</ele>
        <time>2021-08-13T09:26:29Z</time>
      </trkpt>
      <trkpt lat="43.88624" lon="5.99515">
        <ele>380.1</ele>
        <time>2021-08-13T09:26:44Z</time>
      </trkpt>
      <trkpt lat="43.88614" lon="5.99388">
        <ele>379.3</ele>
        <time>2021-08-13T09:26:59Z</time>
      </trkpt>
      <trkpt lat="43.88628" lon="5.99225">
        <ele>376.2</ele>
        <time>2021-08-13T09:27:19Z</time>
      </trkpt>
      <trkpt lat="43.88597" lon="5.99104">
        <ele>375.4</ele>
        <time>2021-08-13T09:27:34Z</time>
      </trkpt>
      <trkpt lat="43.88584" lon="5.98956">
        <ele>374.8</ele>
        <time>2021-08-13T09:27:49Z</time>
      </trkpt>
      <trkpt lat="43.88573" lon="5.98807">
        <ele>374.7</ele>
        <time>2021-08-13T09:28:09Z</time>
      </trkpt>
      <trkpt lat="43.8857" lon="5.98681">
        <ele>378.3</ele>
        <time>2021-08-13T09:28:39Z</time>
      </trkpt>
      <trkpt lat="43.88518" lon="5.98568">
        <ele>376.9</ele>
        <time>2021-08-13T09:29:04Z</time>
      </trkpt>
      <trkpt lat="43.88463" lon="5.98414">
        <ele>376.1</ele>
        <time>2021-08-13T09:29:19Z</time>
      </trkpt>
      <trkpt lat="43.88451" lon="5.98257">
        <ele>375</ele>
        <time>2021-08-13T09:29:34Z</time>
      </trkpt>
      <trkpt lat="43.88427" lon="5.98107">
        <ele>371.9</ele>
        <time>2021-08-13T09:29:54Z</time>
      </trkpt>
      <trkpt lat="43.88411" lon="5.97981">
        <ele>369.6</ele>
        <time>2021-08-13T09:30:09Z</time>
      </trkpt>
      <trkpt lat="43.88397" lon="5.97856">
        <ele>369.2</ele>
        <time>2021-08-13T09:30:24Z</time>
      </trkpt>
      <trkpt lat="43.88361" lon="5.97706">
        <ele>367.7</ele>
        <time>2021-08-13T09:30:44Z</time>
      </trkpt>
      <trkpt lat="43.88401" lon="5.97567">
        <ele>366.4</ele>
        <time>2021-08-13T09:31:09Z</time>
      </trkpt>
      <trkpt lat="43.88401" lon="5.97429">
        <ele>365.6</ele>
        <time>2021-08-13T09:31:24Z</time>
      </trkpt>
      <trkpt lat="43.8835" lon="5.97307">
        <ele>362.6</ele>
        <time>2021-08-13T09:31:44Z</time>
      </trkpt>
      <trkpt lat="43.88308" lon="5.97147">
        <ele>359.5</ele>
        <time>2021-08-13T09:32:04Z</time>
      </trkpt>
      <trkpt lat="43.88299" lon="5.96988">
        <ele>361</ele>
        <time>2021-08-13T09:32:19Z</time>
      </trkpt>
      <trkpt lat="43.88311" lon="5.96856">
        <ele>358.6</ele>
        <time>2021-08-13T09:32:34Z</time>
      </trkpt>
      <trkpt lat="43.88272" lon="5.96703">
        <ele>356.2</ele>
        <time>2021-08-13T09:32:54Z</time>
      </trkpt>
      <trkpt lat="43.88271" lon="5.96568">
        <ele>356.9</ele>
        <time>2021-08-13T09:33:09Z</time>
      </trkpt>
      <trkpt lat="43.88238" lon="5.96428">
        <ele>354.7</ele>
        <time>2021-08-13T09:33:29Z</time>
      </trkpt>
      <trkpt lat="43.88225" lon="5.96275">
        <ele>355.4</ele>
        <time>2021-08-13T09:33:49Z</time>
      </trkpt>
      <trkpt lat="43.88223" lon="5.96115">
        <ele>356.5</ele>
        <time>2021-08-13T09:34:14Z</time>
      </trkpt>
      <trkpt lat="43.88205" lon="5.95989">
        <ele>355.5</ele>
        <time>2021-08-13T09:34:29Z</time>
      </trkpt>
      <trkpt lat="43.88132" lon="5.9588">
        <ele>355.8</ele>
        <time>2021-08-13T09:34:54Z</time>
      </trkpt>
      <trkpt lat="43.88043" lon="5.9581">
        <ele>350</ele>
        <time>2021-08-13T09:35:24Z</time>
      </trkpt>
      <trkpt lat="43.88037" lon="5.95656">
        <ele>348.4</ele>
        <time>2021-08-13T09:35:49Z</time>
      </trkpt>
      <trkpt lat="43.88029" lon="5.95512">
        <ele>348.2</ele>
        <time>2021-08-13T09:36:09Z</time>
      </trkpt>
      <trkpt lat="43.88026" lon="5.95375">
        <ele>347.3</ele>
        <time>2021-08-13T09:36:24Z</time>
      </trkpt>
      <trkpt lat="43.87959" lon="5.95279">
        <ele>345.4</ele>
        <time>2021-08-13T09:36:39Z</time>
      </trkpt>
      <trkpt lat="43.87931" lon="5.95124">
        <ele>345.8</ele>
        <time>2021-08-13T09:36:59Z</time>
      </trkpt>
      <trkpt lat="43.87872" lon="5.95011">
        <ele>342.4</ele>
        <time>2021-08-13T09:37:19Z</time>
      </trkpt>
      <trkpt lat="43.87848" lon="5.94874">
        <ele>340.9</ele>
        <time>2021-08-13T09:37:44Z</time>
      </trkpt>
      <trkpt lat="43.87809" lon="5.9473">
        <ele>339.4</ele>
        <time>2021-08-13T09:38:04Z</time>
      </trkpt>
      <trkpt lat="43.87756" lon="5.94579">
        <ele>336.3</ele>
        <time>2021-08-13T09:38:24Z</time>
      </trkpt>
      <trkpt lat="43.87728" lon="5.94442">
        <ele>335.2</ele>
        <time>2021-08-13T09:38:39Z</time>
      </trkpt>
      <trkpt lat="43.8771" lon="5.94316">
        <ele>333.4</ele>
        <time>2021-08-13T09:38:54Z</time>
      </trkpt>
      <trkpt lat="43.87711" lon="5.94189">
        <ele>332.1</ele>
        <time>2021-08-13T09:39:09Z</time>
      </trkpt>
      <trkpt lat="43.87728" lon="5.94064">
        <ele>332</ele>
        <time>2021-08-13T09:39:24Z</time>
      </trkpt>
      <trkpt lat="43.87674" lon="5.93938">
        <ele>332.9</ele>
        <time>2021-08-13T09:39:49Z</time>
      </trkpt>
      <trkpt lat="43.87662" lon="5.93811">
        <ele>334.9</ele>
        <time>2021-08-13T09:40:04Z</time>
      </trkpt>
      <trkpt lat="43.87648" lon="5.93663">
        <ele>336</ele>
        <time>2021-08-13T09:40:24Z</time>
      </trkpt>
      <trkpt lat="43.87637" lon="5.93511">
        <ele>336</ele>
        <time>2021-08-13T09:40:44Z</time>
      </trkpt>
      <trkpt lat="43.87625" lon="5.93378">
        <ele>336</ele>
        <time>2021-08-13T09:40:59Z</time>
      </trkpt>
      <trkpt lat="43.87614" lon="5.93239">
        <ele>336.4</ele>
        <time>2021-08-13T09:41:14Z</time>
      </trkpt>
      <trkpt lat="43.87599" lon="5.93109">
        <ele>337.2</ele>
        <time>2021-08-13T09:41:29Z</time>
      </trkpt>
      <trkpt lat="43.87594" lon="5.92956">
        <ele>338</ele>
        <time>2021-08-13T09:41:49Z</time>
      </trkpt>
      <trkpt lat="43.87585" lon="5.92827">
        <ele>339.1</ele>
        <time>2021-08-13T09:42:04Z</time>
      </trkpt>
      <trkpt lat="43.87582" lon="5.92684">
        <ele>339</ele>
        <time>2021-08-13T09:42:19Z</time>
      </trkpt>
      <trkpt lat="43.87572" lon="5.92523">
        <ele>338.7</ele>
        <time>2021-08-13T09:42:39Z</time>
      </trkpt>
      <trkpt lat="43.8757" lon="5.92376">
        <ele>339.3</ele>
        <time>2021-08-13T09:42:59Z</time>
      </trkpt>
      <trkpt lat="43.87564" lon="5.92248">
        <ele>339.8</ele>
        <time>2021-08-13T09:43:19Z</time>
      </trkpt>
      <trkpt lat="43.87616" lon="5.92149">
        <ele>339.7</ele>
        <time>2021-08-13T09:43:34Z</time>
      </trkpt>
      <trkpt lat="43.87585" lon="5.92014">
        <ele>341.3</ele>
        <time>2021-08-13T09:43:54Z</time>
      </trkpt>
      <trkpt lat="43.87575" lon="5.9188">
        <ele>342.9</ele>
        <time>2021-08-13T09:44:09Z</time>
      </trkpt>
      <trkpt lat="43.87615" lon="5.91748">
        <ele>342.7</ele>
        <time>2021-08-13T09:44:29Z</time>
      </trkpt>
      <trkpt lat="43.87585" lon="5.9162">
        <ele>344.5</ele>
        <time>2021-08-13T09:44:49Z</time>
      </trkpt>
      <trkpt lat="43.8762" lon="5.91474">
        <ele>346</ele>
        <time>2021-08-13T09:45:04Z</time>
      </trkpt>
      <trkpt lat="43.8764" lon="5.91344">
        <ele>347.4</ele>
        <time>2021-08-13T09:45:24Z</time>
      </trkpt>
      <trkpt lat="43.87633" lon="5.91199">
        <ele>349.6</ele>
        <time>2021-08-13T09:45:49Z</time>
      </trkpt>
      <trkpt lat="43.87656" lon="5.91075">
        <ele>350.1</ele>
        <time>2021-08-13T09:46:04Z</time>
      </trkpt>
      <trkpt lat="43.87692" lon="5.90954">
        <ele>343.7</ele>
        <time>2021-08-13T09:46:24Z</time>
      </trkpt>
      <trkpt lat="43.87676" lon="5.90826">
        <ele>334.3</ele>
        <time>2021-08-13T09:51:15Z</time>
      </trkpt>
      <trkpt lat="43.87609" lon="5.90721">
        <ele>332</ele>
        <time>2021-08-13T09:51:30Z</time>
      </trkpt>
      <trkpt lat="43.87541" lon="5.9061">
        <ele>329.6</ele>
        <time>2021-08-13T09:51:45Z</time>
      </trkpt>
      <trkpt lat="43.87464" lon="5.90501">
        <ele>328</ele>
        <time>2021-08-13T09:52:00Z</time>
      </trkpt>
      <trkpt lat="43.87393" lon="5.90387">
        <ele>327</ele>
        <time>2021-08-13T09:52:15Z</time>
      </trkpt>
      <trkpt lat="43.87316" lon="5.903">
        <ele>326</ele>
        <time>2021-08-13T09:52:30Z</time>
      </trkpt>
      <trkpt lat="43.87231" lon="5.90224">
        <ele>325.6</ele>
        <time>2021-08-13T09:52:45Z</time>
      </trkpt>
      <trkpt lat="43.87148" lon="5.90158">
        <ele>325.4</ele>
        <time>2021-08-13T09:53:00Z</time>
      </trkpt>
      <trkpt lat="43.87051" lon="5.90098">
        <ele>324.8</ele>
        <time>2021-08-13T09:53:15Z</time>
      </trkpt>
      <trkpt lat="43.86961" lon="5.90048">
        <ele>324.9</ele>
        <time>2021-08-13T09:53:30Z</time>
      </trkpt>
      <trkpt lat="43.86872" lon="5.89961">
        <ele>326.1</ele>
        <time>2021-08-13T09:53:55Z</time>
      </trkpt>
      <trkpt lat="43.8679" lon="5.89876">
        <ele>327.3</ele>
        <time>2021-08-13T09:54:15Z</time>
      </trkpt>
      <trkpt lat="43.86711" lon="5.898">
        <ele>326.9</ele>
        <time>2021-08-13T09:54:30Z</time>
      </trkpt>
      <trkpt lat="43.86631" lon="5.89708">
        <ele>325.3</ele>
        <time>2021-08-13T09:54:45Z</time>
      </trkpt>
      <trkpt lat="43.8654" lon="5.89615">
        <ele>324</ele>
        <time>2021-08-13T09:55:00Z</time>
      </trkpt>
      <trkpt lat="43.86455" lon="5.89515">
        <ele>323.2</ele>
        <time>2021-08-13T09:55:15Z</time>
      </trkpt>
      <trkpt lat="43.86366" lon="5.89402">
        <ele>323.2</ele>
        <time>2021-08-13T09:55:30Z</time>
      </trkpt>
      <trkpt lat="43.86261" lon="5.89319">
        <ele>323</ele>
        <time>2021-08-13T09:55:45Z</time>
      </trkpt>
      <trkpt lat="43.86178" lon="5.89229">
        <ele>322.9</ele>
        <time>2021-08-13T09:56:00Z</time>
      </trkpt>
      <trkpt lat="43.86079" lon="5.89141">
        <ele>322.1</ele>
        <time>2021-08-13T09:56:20Z</time>
      </trkpt>
      <trkpt lat="43.85997" lon="5.89061">
        <ele>322.9</ele>
        <time>2021-08-13T09:56:35Z</time>
      </trkpt>
      <trkpt lat="43.85919" lon="5.88976">
        <ele>321.4</ele>
        <time>2021-08-13T09:56:50Z</time>
      </trkpt>
      <trkpt lat="43.85829" lon="5.88934">
        <ele>321.4</ele>
        <time>2021-08-13T09:57:05Z</time>
      </trkpt>
      <trkpt lat="43.85716" lon="5.88881">
        <ele>321.8</ele>
        <time>2021-08-13T09:57:20Z</time>
      </trkpt>
      <trkpt lat="43.85608" lon="5.88794">
        <ele>320.5</ele>
        <time>2021-08-13T09:57:35Z</time>
      </trkpt>
      <trkpt lat="43.85536" lon="5.88695">
        <ele>320.2</ele>
        <time>2021-08-13T09:57:50Z</time>
      </trkpt>
      <trkpt lat="43.85479" lon="5.88585">
        <ele>319.5</ele>
        <time>2021-08-13T09:58:05Z</time>
      </trkpt>
      <trkpt lat="43.85393" lon="5.88468">
        <ele>318.4</ele>
        <time>2021-08-13T09:58:20Z</time>
      </trkpt>
      <trkpt lat="43.8529" lon="5.88344">
        <ele>316.2</ele>
        <time>2021-08-13T09:58:35Z</time>
      </trkpt>
      <trkpt lat="43.85203" lon="5.88224">
        <ele>312.8</ele>
        <time>2021-08-13T09:58:50Z</time>
      </trkpt>
      <trkpt lat="43.85121" lon="5.8812">
        <ele>310.5</ele>
        <time>2021-08-13T09:59:05Z</time>
      </trkpt>
      <trkpt lat="43.85049" lon="5.88023">
        <ele>308.7</ele>
        <time>2021-08-13T09:59:20Z</time>
      </trkpt>
      <trkpt lat="43.84974" lon="5.8793">
        <ele>307.6</ele>
        <time>2021-08-13T09:59:40Z</time>
      </trkpt>
      <trkpt lat="43.84878" lon="5.87924">
        <ele>309.6</ele>
        <time>2021-08-13T10:00:05Z</time>
      </trkpt>
      <trkpt lat="43.84812" lon="5.88011">
        <ele>312.3</ele>
        <time>2021-08-13T10:00:40Z</time>
      </trkpt>
      <trkpt lat="43.84776" lon="5.88126">
        <ele>315</ele>
        <time>2021-08-13T10:01:32Z</time>
      </trkpt>
      <trkpt lat="43.84787" lon="5.8799">
        <ele>328</ele>
        <time>2021-08-13T10:02:33Z</time>
      </trkpt>
      <trkpt lat="43.84772" lon="5.87861">
        <ele>358.8</ele>
        <time>2021-08-13T10:04:14Z</time>
      </trkpt>
      <trkpt lat="43.84771" lon="5.8773">
        <ele>368.9</ele>
        <time>2021-08-13T10:05:30Z</time>
      </trkpt>
      <trkpt lat="43.84686" lon="5.87663">
        <ele>372.8</ele>
        <time>2021-08-13T10:06:24Z</time>
      </trkpt>
      <trkpt lat="43.84599" lon="5.8771">
        <ele>380</ele>
        <time>2021-08-13T10:06:54Z</time>
      </trkpt>
      <trkpt lat="43.84504" lon="5.87718">
        <ele>380.6</ele>
        <time>2021-08-13T10:07:19Z</time>
      </trkpt>
      <trkpt lat="43.84464" lon="5.87595">
        <ele>377.9</ele>
        <time>2021-08-13T10:07:54Z</time>
      </trkpt>
      <trkpt lat="43.84368" lon="5.8755">
        <ele>380.2</ele>
        <time>2021-08-13T10:08:14Z</time>
      </trkpt>
      <trkpt lat="43.8429" lon="5.87476">
        <ele>377.5</ele>
        <time>2021-08-13T10:08:29Z</time>
      </trkpt>
      <trkpt lat="43.84189" lon="5.87385">
        <ele>374.8</ele>
        <time>2021-08-13T10:08:49Z</time>
      </trkpt>
      <trkpt lat="43.841" lon="5.87347">
        <ele>374.5</ele>
        <time>2021-08-13T10:09:04Z</time>
      </trkpt>
      <trkpt lat="43.84053" lon="5.87234">
        <ele>373.3</ele>
        <time>2021-08-13T10:09:29Z</time>
      </trkpt>
      <trkpt lat="43.83959" lon="5.87167">
        <ele>372.2</ele>
        <time>2021-08-13T10:09:44Z</time>
      </trkpt>
      <trkpt lat="43.83851" lon="5.87072">
        <ele>367.4</ele>
        <time>2021-08-13T10:10:04Z</time>
      </trkpt>
      <trkpt lat="43.83783" lon="5.86955">
        <ele>367.6</ele>
        <time>2021-08-13T10:10:19Z</time>
      </trkpt>
      <trkpt lat="43.83697" lon="5.86893">
        <ele>365.6</ele>
        <time>2021-08-13T10:10:34Z</time>
      </trkpt>
      <trkpt lat="43.83616" lon="5.86818">
        <ele>364</ele>
        <time>2021-08-13T10:10:49Z</time>
      </trkpt>
      <trkpt lat="43.83509" lon="5.86739">
        <ele>362.4</ele>
        <time>2021-08-13T10:11:04Z</time>
      </trkpt>
      <trkpt lat="43.83452" lon="5.86604">
        <ele>359</ele>
        <time>2021-08-13T10:11:19Z</time>
      </trkpt>
      <trkpt lat="43.83375" lon="5.86517">
        <ele>356.8</ele>
        <time>2021-08-13T10:11:44Z</time>
      </trkpt>
      <trkpt lat="43.83275" lon="5.86441">
        <ele>357.6</ele>
        <time>2021-08-13T10:12:04Z</time>
      </trkpt>
      <trkpt lat="43.832" lon="5.86345">
        <ele>357.2</ele>
        <time>2021-08-13T10:12:19Z</time>
      </trkpt>
      <trkpt lat="43.8312" lon="5.86253">
        <ele>359.3</ele>
        <time>2021-08-13T10:12:34Z</time>
      </trkpt>
      <trkpt lat="43.83034" lon="5.86162">
        <ele>359.7</ele>
        <time>2021-08-13T10:12:49Z</time>
      </trkpt>
      <trkpt lat="43.82944" lon="5.8618">
        <ele>358.5</ele>
        <time>2021-08-13T10:13:04Z</time>
      </trkpt>
      <trkpt lat="43.82906" lon="5.86307">
        <ele>354.8</ele>
        <time>2021-08-13T10:13:14Z</time>
      </trkpt>
      <trkpt lat="43.82859" lon="5.86153">
        <ele>346.5</ele>
        <time>2021-08-13T10:13:45Z</time>
      </trkpt>
      <trkpt lat="43.8284" lon="5.86006">
        <ele>342.4</ele>
        <time>2021-08-13T10:13:55Z</time>
      </trkpt>
      <trkpt lat="43.82803" lon="5.85866">
        <ele>337.7</ele>
        <time>2021-08-13T10:14:05Z</time>
      </trkpt>
      <trkpt lat="43.82737" lon="5.85739">
        <ele>331.9</ele>
        <time>2021-08-13T10:14:15Z</time>
      </trkpt>
      <trkpt lat="43.82683" lon="5.85625">
        <ele>327</ele>
        <time>2021-08-13T10:14:25Z</time>
      </trkpt>
      <trkpt lat="43.82594" lon="5.85588">
        <ele>318.9</ele>
        <time>2021-08-13T10:14:35Z</time>
      </trkpt>
      <trkpt lat="43.82507" lon="5.85499">
        <ele>311.5</ele>
        <time>2021-08-13T10:14:50Z</time>
      </trkpt>
      <trkpt lat="43.82393" lon="5.8546">
        <ele>305.3</ele>
        <time>2021-08-13T10:15:10Z</time>
      </trkpt>
      <trkpt lat="43.82306" lon="5.85402">
        <ele>299.9</ele>
        <time>2021-08-13T10:15:25Z</time>
      </trkpt>
      <trkpt lat="43.82208" lon="5.85347">
        <ele>294.9</ele>
        <time>2021-08-13T10:15:50Z</time>
      </trkpt>
      <trkpt lat="43.82114" lon="5.8531">
        <ele>293.3</ele>
        <time>2021-08-13T10:16:05Z</time>
      </trkpt>
      <trkpt lat="43.82019" lon="5.85272">
        <ele>291</ele>
        <time>2021-08-13T10:16:20Z</time>
      </trkpt>
      <trkpt lat="43.81939" lon="5.85154">
        <ele>288</ele>
        <time>2021-08-13T10:16:45Z</time>
      </trkpt>
      <trkpt lat="43.81849" lon="5.85081">
        <ele>287.1</ele>
        <time>2021-08-13T10:17:05Z</time>
      </trkpt>
      <trkpt lat="43.81738" lon="5.85052">
        <ele>285</ele>
        <time>2021-08-13T10:17:25Z</time>
      </trkpt>
      <trkpt lat="43.81646" lon="5.8499">
        <ele>282</ele>
        <time>2021-08-13T10:17:45Z</time>
      </trkpt>
      <trkpt lat="43.81567" lon="5.84923">
        <ele>279.7</ele>
        <time>2021-08-13T10:18:00Z</time>
      </trkpt>
      <trkpt lat="43.81482" lon="5.84817">
        <ele>278.2</ele>
        <time>2021-08-13T10:18:15Z</time>
      </trkpt>
      <trkpt lat="43.81394" lon="5.84738">
        <ele>280</ele>
        <time>2021-08-13T10:18:30Z</time>
      </trkpt>
      <trkpt lat="43.81294" lon="5.84681">
        <ele>287.8</ele>
        <time>2021-08-13T10:18:45Z</time>
      </trkpt>
      <trkpt lat="43.81202" lon="5.84634">
        <ele>294.4</ele>
        <time>2021-08-13T10:19:57Z</time>
      </trkpt>
      <trkpt lat="43.81095" lon="5.84564">
        <ele>292.8</ele>
        <time>2021-08-13T10:20:17Z</time>
      </trkpt>
      <trkpt lat="43.81003" lon="5.84509">
        <ele>291.3</ele>
        <time>2021-08-13T10:20:32Z</time>
      </trkpt>
      <trkpt lat="43.80921" lon="5.84437">
        <ele>290.1</ele>
        <time>2021-08-13T10:20:47Z</time>
      </trkpt>
      <trkpt lat="43.80842" lon="5.84339">
        <ele>288.3</ele>
        <time>2021-08-13T10:21:02Z</time>
      </trkpt>
      <trkpt lat="43.80742" lon="5.84273">
        <ele>286.2</ele>
        <time>2021-08-13T10:21:17Z</time>
      </trkpt>
      <trkpt lat="43.80645" lon="5.84227">
        <ele>286.4</ele>
        <time>2021-08-13T10:21:32Z</time>
      </trkpt>
      <trkpt lat="43.80537" lon="5.84183">
        <ele>289.1</ele>
        <time>2021-08-13T10:21:52Z</time>
      </trkpt>
      <trkpt lat="43.80443" lon="5.84187">
        <ele>291.7</ele>
        <time>2021-08-13T10:22:12Z</time>
      </trkpt>
      <trkpt lat="43.80378" lon="5.8407">
        <ele>289.8</ele>
        <time>2021-08-13T10:22:27Z</time>
      </trkpt>
      <trkpt lat="43.80328" lon="5.83943">
        <ele>290.5</ele>
        <time>2021-08-13T10:22:42Z</time>
      </trkpt>
      <trkpt lat="43.8027" lon="5.83825">
        <ele>289.5</ele>
        <time>2021-08-13T10:22:57Z</time>
      </trkpt>
      <trkpt lat="43.80232" lon="5.83694">
        <ele>287.8</ele>
        <time>2021-08-13T10:23:12Z</time>
      </trkpt>
      <trkpt lat="43.80177" lon="5.83567">
        <ele>286.8</ele>
        <time>2021-08-13T10:23:27Z</time>
      </trkpt>
      <trkpt lat="43.80125" lon="5.83437">
        <ele>281.4</ele>
        <time>2021-08-13T10:23:42Z</time>
      </trkpt>
      <trkpt lat="43.80056" lon="5.83328">
        <ele>284.3</ele>
        <time>2021-08-13T10:24:02Z</time>
      </trkpt>
      <trkpt lat="43.80097" lon="5.83204">
        <ele>292</ele>
        <time>2021-08-13T10:28:40Z</time>
      </trkpt>
      <trkpt lat="43.80148" lon="5.83088">
        <ele>286.5</ele>
        <time>2021-08-13T10:29:00Z</time>
      </trkpt>
      <trkpt lat="43.80203" lon="5.82965">
        <ele>288.4</ele>
        <time>2021-08-13T10:29:20Z</time>
      </trkpt>
      <trkpt lat="43.8026" lon="5.82842">
        <ele>287.6</ele>
        <time>2021-08-13T10:29:40Z</time>
      </trkpt>
      <trkpt lat="43.80318" lon="5.82719">
        <ele>288.4</ele>
        <time>2021-08-13T10:30:00Z</time>
      </trkpt>
      <trkpt lat="43.80384" lon="5.82611">
        <ele>288.7</ele>
        <time>2021-08-13T10:30:25Z</time>
      </trkpt>
      <trkpt lat="43.80439" lon="5.82507">
        <ele>291.4</ele>
        <time>2021-08-13T10:30:50Z</time>
      </trkpt>
      <trkpt lat="43.80495" lon="5.82377">
        <ele>292.3</ele>
        <time>2021-08-13T10:31:15Z</time>
      </trkpt>
      <trkpt lat="43.80541" lon="5.82244">
        <ele>292.9</ele>
        <time>2021-08-13T10:31:35Z</time>
      </trkpt>
      <trkpt lat="43.80582" lon="5.82128">
        <ele>288.6</ele>
        <time>2021-08-13T10:31:50Z</time>
      </trkpt>
      <trkpt lat="43.80629" lon="5.81995">
        <ele>287.8</ele>
        <time>2021-08-13T10:32:10Z</time>
      </trkpt>
      <trkpt lat="43.80671" lon="5.81884">
        <ele>294.4</ele>
        <time>2021-08-13T10:32:45Z</time>
      </trkpt>
      <trkpt lat="43.80718" lon="5.81766">
        <ele>300.5</ele>
        <time>2021-08-13T10:33:10Z</time>
      </trkpt>
      <trkpt lat="43.80768" lon="5.81664">
        <ele>305.1</ele>
        <time>2021-08-13T10:33:30Z</time>
      </trkpt>
      <trkpt lat="43.80818" lon="5.81562">
        <ele>299.1</ele>
        <time>2021-08-13T10:33:50Z</time>
      </trkpt>
      <trkpt lat="43.80881" lon="5.81443">
        <ele>292.2</ele>
        <time>2021-08-13T10:34:10Z</time>
      </trkpt>
      <trkpt lat="43.80945" lon="5.8132">
        <ele>290.3</ele>
        <time>2021-08-13T10:34:35Z</time>
      </trkpt>
      <trkpt lat="43.80933" lon="5.81185">
        <ele>299.9</ele>
        <time>2021-08-13T10:35:11Z</time>
      </trkpt>
      <trkpt lat="43.81031" lon="5.81146">
        <ele>294.4</ele>
        <time>2021-08-13T10:36:13Z</time>
      </trkpt>
      <trkpt lat="43.81093" lon="5.81041">
        <ele>292.3</ele>
        <time>2021-08-13T10:36:33Z</time>
      </trkpt>
      <trkpt lat="43.81151" lon="5.80931">
        <ele>291</ele>
        <time>2021-08-13T10:36:53Z</time>
      </trkpt>
      <trkpt lat="43.81208" lon="5.80817">
        <ele>291.6</ele>
        <time>2021-08-13T10:37:13Z</time>
      </trkpt>
      <trkpt lat="43.81248" lon="5.80703">
        <ele>294.2</ele>
        <time>2021-08-13T10:37:33Z</time>
      </trkpt>
      <trkpt lat="43.8129" lon="5.80589">
        <ele>298.3</ele>
        <time>2021-08-13T10:37:53Z</time>
      </trkpt>
      <trkpt lat="43.81331" lon="5.80475">
        <ele>298.5</ele>
        <time>2021-08-13T10:38:13Z</time>
      </trkpt>
      <trkpt lat="43.81373" lon="5.80354">
        <ele>304.2</ele>
        <time>2021-08-13T10:38:38Z</time>
      </trkpt>
      <trkpt lat="43.8144" lon="5.80241">
        <ele>307.6</ele>
        <time>2021-08-13T10:39:03Z</time>
      </trkpt>
      <trkpt lat="43.81506" lon="5.80132">
        <ele>307.2</ele>
        <time>2021-08-13T10:39:28Z</time>
      </trkpt>
      <trkpt lat="43.81574" lon="5.80038">
        <ele>309.3</ele>
        <time>2021-08-13T10:39:58Z</time>
      </trkpt>
      <trkpt lat="43.81639" lon="5.79945">
        <ele>311.6</ele>
        <time>2021-08-13T10:40:36Z</time>
      </trkpt>
      <trkpt lat="43.81716" lon="5.79874">
        <ele>313.7</ele>
        <time>2021-08-13T10:41:21Z</time>
      </trkpt>
      <trkpt lat="43.81784" lon="5.79793">
        <ele>313</ele>
        <time>2021-08-13T10:42:31Z</time>
      </trkpt>
      <trkpt lat="43.81844" lon="5.79692">
        <ele>310.6</ele>
        <time>2021-08-13T10:43:15Z</time>
      </trkpt>
      <trkpt lat="43.81905" lon="5.79589">
        <ele>315.2</ele>
        <time>2021-08-13T10:43:40Z</time>
      </trkpt>
      <trkpt lat="43.81958" lon="5.79491">
        <ele>319.7</ele>
        <time>2021-08-13T10:44:00Z</time>
      </trkpt>
      <trkpt lat="43.82018" lon="5.79388">
        <ele>318.6</ele>
        <time>2021-08-13T10:44:30Z</time>
      </trkpt>
      <trkpt lat="43.82089" lon="5.79295">
        <ele>322.4</ele>
        <time>2021-08-13T10:45:01Z</time>
      </trkpt>
      <trkpt lat="43.82174" lon="5.79205">
        <ele>322.8</ele>
        <time>2021-08-13T10:45:26Z</time>
      </trkpt>
      <trkpt lat="43.82271" lon="5.79182">
        <ele>326.1</ele>
        <time>2021-08-13T10:46:01Z</time>
      </trkpt>
      <trkpt lat="43.82344" lon="5.79085">
        <ele>328.1</ele>
        <time>2021-08-13T10:51:13Z</time>
      </trkpt>
      <trkpt lat="43.82412" lon="5.78999">
        <ele>331.6</ele>
        <time>2021-08-13T10:51:43Z</time>
      </trkpt>
      <trkpt lat="43.82476" lon="5.78905">
        <ele>336.9</ele>
        <time>2021-08-13T10:52:18Z</time>
      </trkpt>
      <trkpt lat="43.82541" lon="5.78826">
        <ele>344.6</ele>
        <time>2021-08-13T10:52:53Z</time>
      </trkpt>
      <trkpt lat="43.82618" lon="5.78749">
        <ele>351.3</ele>
        <time>2021-08-13T10:53:38Z</time>
      </trkpt>
      <trkpt lat="43.82705" lon="5.78712">
        <ele>358.1</ele>
        <time>2021-08-13T10:54:18Z</time>
      </trkpt>
      <trkpt lat="43.82788" lon="5.78669">
        <ele>359.5</ele>
        <time>2021-08-13T10:55:35Z</time>
      </trkpt>
      <trkpt lat="43.82868" lon="5.78593">
        <ele>371.9</ele>
        <time>2021-08-13T10:56:15Z</time>
      </trkpt>
      <trkpt lat="43.8296" lon="5.78537">
        <ele>383.1</ele>
        <time>2021-08-13T10:56:55Z</time>
      </trkpt>
      <trkpt lat="43.82864" lon="5.785">
        <ele>367.6</ele>
        <time>2021-08-13T11:53:42Z</time>
      </trkpt>
      <trkpt lat="43.82858" lon="5.78372">
        <ele>342.2</ele>
        <time>2021-08-13T13:52:41Z</time>
      </trkpt>
      <trkpt lat="43.82795" lon="5.78275">
        <ele>344.4</ele>
        <time>2021-08-13T13:57:38Z</time>
      </trkpt>
      <trkpt lat="43.82891" lon="5.78268">
        <ele>347.2</ele>
        <time>2021-08-13T14:05:03Z</time>
      </trkpt>
      <trkpt lat="43.82984" lon="5.7827">
        <ele>347.1</ele>
        <time>2021-08-13T14:05:47Z</time>
      </trkpt>
      <trkpt lat="43.83064" lon="5.7819">
        <ele>360.4</ele>
        <time>2021-08-13T14:06:36Z</time>
      </trkpt>
      <trkpt lat="43.83077" lon="5.78043">
        <ele>359.9</ele>
        <time>2021-08-13T14:06:56Z</time>
      </trkpt>
      <trkpt lat="43.831" lon="5.77914">
        <ele>357.5</ele>
        <time>2021-08-13T14:07:16Z</time>
      </trkpt>
      <trkpt lat="43.83115" lon="5.77764">
        <ele>359.3</ele>
        <time>2021-08-13T14:08:12Z</time>
      </trkpt>
      <trkpt lat="43.83141" lon="5.77629">
        <ele>359.8</ele>
        <time>2021-08-13T14:08:37Z</time>
      </trkpt>
      <trkpt lat="43.83168" lon="5.77499">
        <ele>359.3</ele>
        <time>2021-08-13T14:09:07Z</time>
      </trkpt>
      <trkpt lat="43.8319" lon="5.7736">
        <ele>356.8</ele>
        <time>2021-08-13T14:09:37Z</time>
      </trkpt>
      <trkpt lat="43.83239" lon="5.77234">
        <ele>356.4</ele>
        <time>2021-08-13T14:10:07Z</time>
      </trkpt>
      <trkpt lat="43.83278" lon="5.77119">
        <ele>357.6</ele>
        <time>2021-08-13T14:10:37Z</time>
      </trkpt>
      <trkpt lat="43.83312" lon="5.76998">
        <ele>361.3</ele>
        <time>2021-08-13T14:11:07Z</time>
      </trkpt>
      <trkpt lat="43.8332" lon="5.76863">
        <ele>370.2</ele>
        <time>2021-08-13T14:12:23Z</time>
      </trkpt>
      <trkpt lat="43.83303" lon="5.76728">
        <ele>369.9</ele>
        <time>2021-08-13T14:12:53Z</time>
      </trkpt>
      <trkpt lat="43.83291" lon="5.76598">
        <ele>370.4</ele>
        <time>2021-08-13T14:13:28Z</time>
      </trkpt>
      <trkpt lat="43.83276" lon="5.76467">
        <ele>378.8</ele>
        <time>2021-08-13T14:14:03Z</time>
      </trkpt>
      <trkpt lat="43.83255" lon="5.76324">
        <ele>385.6</ele>
        <time>2021-08-13T14:14:43Z</time>
      </trkpt>
      <trkpt lat="43.83241" lon="5.76193">
        <ele>388.9</ele>
        <time>2021-08-13T14:15:18Z</time>
      </trkpt>
      <trkpt lat="43.83264" lon="5.7606">
        <ele>392.9</ele>
        <time>2021-08-13T14:16:04Z</time>
      </trkpt>
      <trkpt lat="43.83294" lon="5.75937">
        <ele>398.8</ele>
        <time>2021-08-13T14:16:52Z</time>
      </trkpt>
      <trkpt lat="43.83297" lon="5.75807">
        <ele>409</ele>
        <time>2021-08-13T14:17:40Z</time>
      </trkpt>
      <trkpt lat="43.83291" lon="5.75673">
        <ele>413.6</ele>
        <time>2021-08-13T14:18:15Z</time>
      </trkpt>
      <trkpt lat="43.83298" lon="5.75535">
        <ele>419.9</ele>
        <time>2021-08-13T14:18:55Z</time>
      </trkpt>
      <trkpt lat="43.83313" lon="5.75413">
        <ele>422.3</ele>
        <time>2021-08-13T14:19:35Z</time>
      </trkpt>
      <trkpt lat="43.83348" lon="5.75289">
        <ele>427.9</ele>
        <time>2021-08-13T14:20:25Z</time>
      </trkpt>
      <trkpt lat="43.83397" lon="5.7518">
        <ele>435.3</ele>
        <time>2021-08-13T14:21:14Z</time>
      </trkpt>
      <trkpt lat="43.83491" lon="5.75185">
        <ele>449.1</ele>
        <time>2021-08-13T14:22:25Z</time>
      </trkpt>
      <trkpt lat="43.83588" lon="5.75235">
        <ele>449.2</ele>
        <time>2021-08-13T14:24:41Z</time>
      </trkpt>
      <trkpt lat="43.83683" lon="5.7527">
        <ele>452.4</ele>
        <time>2021-08-13T14:25:21Z</time>
      </trkpt>
      <trkpt lat="43.83774" lon="5.75241">
        <ele>462.2</ele>
        <time>2021-08-13T14:26:01Z</time>
      </trkpt>
      <trkpt lat="43.83867" lon="5.75197">
        <ele>466.4</ele>
        <time>2021-08-13T14:26:41Z</time>
      </trkpt>
      <trkpt lat="43.8397" lon="5.75207">
        <ele>473.6</ele>
        <time>2021-08-13T14:27:26Z</time>
      </trkpt>
      <trkpt lat="43.84062" lon="5.75249">
        <ele>487</ele>
        <time>2021-08-13T14:28:13Z</time>
      </trkpt>
      <trkpt lat="43.84147" lon="5.75308">
        <ele>497.1</ele>
        <time>2021-08-13T14:28:53Z</time>
      </trkpt>
      <trkpt lat="43.84198" lon="5.75196">
        <ele>493.2</ele>
        <time>2021-08-13T14:29:38Z</time>
      </trkpt>
      <trkpt lat="43.84219" lon="5.75073">
        <ele>495.7</ele>
        <time>2021-08-13T14:30:23Z</time>
      </trkpt>
      <trkpt lat="43.84195" lon="5.74944">
        <ele>503.3</ele>
        <time>2021-08-13T14:31:08Z</time>
      </trkpt>
      <trkpt lat="43.8418" lon="5.74814">
        <ele>512</ele>
        <time>2021-08-13T14:31:54Z</time>
      </trkpt>
      <trkpt lat="43.84156" lon="5.74684">
        <ele>515.9</ele>
        <time>2021-08-13T14:32:44Z</time>
      </trkpt>
      <trkpt lat="43.84119" lon="5.74566">
        <ele>510.4</ele>
        <time>2021-08-13T14:55:21Z</time>
      </trkpt>
      <trkpt lat="43.84075" lon="5.74448">
        <ele>518.5</ele>
        <time>2021-08-13T14:55:56Z</time>
      </trkpt>
      <trkpt lat="43.84083" lon="5.74315">
        <ele>524.7</ele>
        <time>2021-08-13T14:56:31Z</time>
      </trkpt>
      <trkpt lat="43.84128" lon="5.74199">
        <ele>524.9</ele>
        <time>2021-08-13T14:56:56Z</time>
      </trkpt>
      <trkpt lat="43.84194" lon="5.74101">
        <ele>521</ele>
        <time>2021-08-13T14:57:11Z</time>
      </trkpt>
      <trkpt lat="43.8427" lon="5.73993">
        <ele>518.2</ele>
        <time>2021-08-13T14:57:26Z</time>
      </trkpt>
      <trkpt lat="43.84343" lon="5.73913">
        <ele>523.3</ele>
        <time>2021-08-13T14:58:04Z</time>
      </trkpt>
      <trkpt lat="43.84429" lon="5.73962">
        <ele>540.1</ele>
        <time>2021-08-13T14:58:49Z</time>
      </trkpt>
      <trkpt lat="43.84522" lon="5.73966">
        <ele>546.7</ele>
        <time>2021-08-13T14:59:35Z</time>
      </trkpt>
      <trkpt lat="43.84591" lon="5.73892">
        <ele>544.1</ele>
        <time>2021-08-13T15:00:22Z</time>
      </trkpt>
      <trkpt lat="43.84675" lon="5.73818">
        <ele>547.4</ele>
        <time>2021-08-13T15:01:02Z</time>
      </trkpt>
      <trkpt lat="43.84757" lon="5.73745">
        <ele>552.5</ele>
        <time>2021-08-13T15:01:27Z</time>
      </trkpt>
      <trkpt lat="43.84809" lon="5.73646">
        <ele>552.8</ele>
        <time>2021-08-13T15:01:42Z</time>
      </trkpt>
      <trkpt lat="43.84874" lon="5.7356">
        <ele>551.6</ele>
        <time>2021-08-13T15:02:12Z</time>
      </trkpt>
      <trkpt lat="43.84943" lon="5.73486">
        <ele>555.6</ele>
        <time>2021-08-13T15:02:52Z</time>
      </trkpt>
      <trkpt lat="43.85014" lon="5.73406">
        <ele>563.9</ele>
        <time>2021-08-13T15:03:39Z</time>
      </trkpt>
      <trkpt lat="43.85052" lon="5.73293">
        <ele>568.3</ele>
        <time>2021-08-13T15:04:19Z</time>
      </trkpt>
      <trkpt lat="43.851" lon="5.73184">
        <ele>577.6</ele>
        <time>2021-08-13T15:04:59Z</time>
      </trkpt>
      <trkpt lat="43.8515" lon="5.73075">
        <ele>578.1</ele>
        <time>2021-08-13T15:05:39Z</time>
      </trkpt>
      <trkpt lat="43.85203" lon="5.72976">
        <ele>572.6</ele>
        <time>2021-08-13T15:06:04Z</time>
      </trkpt>
      <trkpt lat="43.85264" lon="5.72875">
        <ele>571.5</ele>
        <time>2021-08-13T15:06:19Z</time>
      </trkpt>
      <trkpt lat="43.85361" lon="5.72853">
        <ele>577.2</ele>
        <time>2021-08-13T15:09:03Z</time>
      </trkpt>
      <trkpt lat="43.85468" lon="5.72834">
        <ele>578.1</ele>
        <time>2021-08-13T15:09:23Z</time>
      </trkpt>
      <trkpt lat="43.8558" lon="5.72811">
        <ele>573.9</ele>
        <time>2021-08-13T15:09:38Z</time>
      </trkpt>
      <trkpt lat="43.85669" lon="5.72795">
        <ele>569.6</ele>
        <time>2021-08-13T15:09:48Z</time>
      </trkpt>
      <trkpt lat="43.85762" lon="5.72798">
        <ele>564</ele>
        <time>2021-08-13T15:09:58Z</time>
      </trkpt>
      <trkpt lat="43.8586" lon="5.72806">
        <ele>557.1</ele>
        <time>2021-08-13T15:10:08Z</time>
      </trkpt>
      <trkpt lat="43.8596" lon="5.72789">
        <ele>550.8</ele>
        <time>2021-08-13T15:10:18Z</time>
      </trkpt>
      <trkpt lat="43.86067" lon="5.72774">
        <ele>546.4</ele>
        <time>2021-08-13T15:10:28Z</time>
      </trkpt>
      <trkpt lat="43.86172" lon="5.72753">
        <ele>538.2</ele>
        <time>2021-08-13T15:10:38Z</time>
      </trkpt>
      <trkpt lat="43.86269" lon="5.72805">
        <ele>530.8</ele>
        <time>2021-08-13T15:10:48Z</time>
      </trkpt>
      <trkpt lat="43.86364" lon="5.72894">
        <ele>523.2</ele>
        <time>2021-08-13T15:10:58Z</time>
      </trkpt>
      <trkpt lat="43.8646" lon="5.72902">
        <ele>518.6</ele>
        <time>2021-08-13T15:11:08Z</time>
      </trkpt>
      <trkpt lat="43.86577" lon="5.72891">
        <ele>515.5</ele>
        <time>2021-08-13T15:11:23Z</time>
      </trkpt>
      <trkpt lat="43.86679" lon="5.7295">
        <ele>512.5</ele>
        <time>2021-08-13T15:11:38Z</time>
      </trkpt>
      <trkpt lat="43.8667" lon="5.72797">
        <ele>503.3</ele>
        <time>2021-08-13T15:11:58Z</time>
      </trkpt>
      <trkpt lat="43.86761" lon="5.72794">
        <ele>497.5</ele>
        <time>2021-08-13T15:13:15Z</time>
      </trkpt>
      <trkpt lat="43.86856" lon="5.72813">
        <ele>498</ele>
        <time>2021-08-13T15:13:30Z</time>
      </trkpt>
      <trkpt lat="43.86985" lon="5.72829">
        <ele>494.9</ele>
        <time>2021-08-13T15:13:45Z</time>
      </trkpt>
      <trkpt lat="43.87085" lon="5.72859">
        <ele>491</ele>
        <time>2021-08-13T15:13:55Z</time>
      </trkpt>
      <trkpt lat="43.87162" lon="5.72968">
        <ele>483.1</ele>
        <time>2021-08-13T15:14:10Z</time>
      </trkpt>
      <trkpt lat="43.87211" lon="5.72865">
        <ele>474.1</ele>
        <time>2021-08-13T15:14:20Z</time>
      </trkpt>
      <trkpt lat="43.87273" lon="5.72781">
        <ele>465.3</ele>
        <time>2021-08-13T15:14:30Z</time>
      </trkpt>
      <trkpt lat="43.87348" lon="5.72713">
        <ele>458.1</ele>
        <time>2021-08-13T15:14:40Z</time>
      </trkpt>
      <trkpt lat="43.87432" lon="5.72642">
        <ele>450.6</ele>
        <time>2021-08-13T15:14:50Z</time>
      </trkpt>
      <trkpt lat="43.87524" lon="5.72645">
        <ele>444.9</ele>
        <time>2021-08-13T15:15:00Z</time>
      </trkpt>
      <trkpt lat="43.87646" lon="5.726">
        <ele>439.5</ele>
        <time>2021-08-13T15:15:15Z</time>
      </trkpt>
      <trkpt lat="43.8773" lon="5.72565">
        <ele>432.8</ele>
        <time>2021-08-13T15:15:25Z</time>
      </trkpt>
      <trkpt lat="43.87851" lon="5.72576">
        <ele>426</ele>
        <time>2021-08-13T15:15:40Z</time>
      </trkpt>
      <trkpt lat="43.87956" lon="5.72535">
        <ele>418.5</ele>
        <time>2021-08-13T15:15:55Z</time>
      </trkpt>
      <trkpt lat="43.88035" lon="5.72465">
        <ele>412.1</ele>
        <time>2021-08-13T15:16:10Z</time>
      </trkpt>
      <trkpt lat="43.88047" lon="5.72335">
        <ele>406.3</ele>
        <time>2021-08-13T15:16:25Z</time>
      </trkpt>
      <trkpt lat="43.88107" lon="5.72221">
        <ele>401.3</ele>
        <time>2021-08-13T15:16:45Z</time>
      </trkpt>
      <trkpt lat="43.88126" lon="5.7209">
        <ele>398.8</ele>
        <time>2021-08-13T15:17:15Z</time>
      </trkpt>
      <trkpt lat="43.88077" lon="5.71967">
        <ele>399.2</ele>
        <time>2021-08-13T15:18:11Z</time>
      </trkpt>
      <trkpt lat="43.8817" lon="5.7197">
        <ele>454.9</ele>
        <time>2021-08-13T15:20:16Z</time>
      </trkpt>
      <trkpt lat="43.88268" lon="5.71979">
        <ele>461.2</ele>
        <time>2021-08-13T15:21:02Z</time>
      </trkpt>
      <trkpt lat="43.88345" lon="5.72051">
        <ele>469.8</ele>
        <time>2021-08-13T15:21:51Z</time>
      </trkpt>
      <trkpt lat="43.88409" lon="5.71951">
        <ele>468.8</ele>
        <time>2021-08-13T15:22:41Z</time>
      </trkpt>
      <trkpt lat="43.88442" lon="5.71814">
        <ele>472.7</ele>
        <time>2021-08-13T15:23:23Z</time>
      </trkpt>
      <trkpt lat="43.88496" lon="5.71699">
        <ele>476.1</ele>
        <time>2021-08-13T15:23:48Z</time>
      </trkpt>
      <trkpt lat="43.88487" lon="5.71568">
        <ele>474.3</ele>
        <time>2021-08-13T15:27:08Z</time>
      </trkpt>
      <trkpt lat="43.88419" lon="5.71475">
        <ele>475.5</ele>
        <time>2021-08-13T15:27:28Z</time>
      </trkpt>
      <trkpt lat="43.88351" lon="5.71382">
        <ele>476</ele>
        <time>2021-08-13T15:27:48Z</time>
      </trkpt>
      <trkpt lat="43.88268" lon="5.71283">
        <ele>479.4</ele>
        <time>2021-08-13T15:28:08Z</time>
      </trkpt>
      <trkpt lat="43.88199" lon="5.71188">
        <ele>477.9</ele>
        <time>2021-08-13T15:28:23Z</time>
      </trkpt>
      <trkpt lat="43.88115" lon="5.71078">
        <ele>479.4</ele>
        <time>2021-08-13T15:28:38Z</time>
      </trkpt>
      <trkpt lat="43.88045" lon="5.70948">
        <ele>475.6</ele>
        <time>2021-08-13T15:28:53Z</time>
      </trkpt>
      <trkpt lat="43.88022" lon="5.70756">
        <ele>460.5</ele>
        <time>2021-08-13T15:29:08Z</time>
      </trkpt>
      <trkpt lat="43.88056" lon="5.70619">
        <ele>453.3</ele>
        <time>2021-08-13T15:29:18Z</time>
      </trkpt>
      <trkpt lat="43.88012" lon="5.70489">
        <ele>446.2</ele>
        <time>2021-08-13T15:29:28Z</time>
      </trkpt>
      <trkpt lat="43.87998" lon="5.70349">
        <ele>440.9</ele>
        <time>2021-08-13T15:29:38Z</time>
      </trkpt>
      <trkpt lat="43.8791" lon="5.70312">
        <ele>433.6</ele>
        <time>2021-08-13T15:29:53Z</time>
      </trkpt>
      <trkpt lat="43.87905" lon="5.7017">
        <ele>444.6</ele>
        <time>2021-08-13T15:31:46Z</time>
      </trkpt>
      <trkpt lat="43.8798" lon="5.70097">
        <ele>446.2</ele>
        <time>2021-08-13T15:32:06Z</time>
      </trkpt>
      <trkpt lat="43.88069" lon="5.70057">
        <ele>446.7</ele>
        <time>2021-08-13T15:32:41Z</time>
      </trkpt>
      <trkpt lat="43.87989" lon="5.70106">
        <ele>446.5</ele>
        <time>2021-08-13T15:41:07Z</time>
      </trkpt>
      <trkpt lat="43.87895" lon="5.70141">
        <ele>446.2</ele>
        <time>2021-08-13T15:41:39Z</time>
      </trkpt>
      <trkpt lat="43.87852" lon="5.70266">
        <ele>446.2</ele>
        <time>2021-08-13T15:42:04Z</time>
      </trkpt>
      <trkpt lat="43.87781" lon="5.70348">
        <ele>444.6</ele>
        <time>2021-08-13T15:42:34Z</time>
      </trkpt>
      <trkpt lat="43.87693" lon="5.70411">
        <ele>443.3</ele>
        <time>2021-08-13T15:43:09Z</time>
      </trkpt>
      <trkpt lat="43.87644" lon="5.70525">
        <ele>447.6</ele>
        <time>2021-08-13T15:43:44Z</time>
      </trkpt>
      <trkpt lat="43.87601" lon="5.70645">
        <ele>455.4</ele>
        <time>2021-08-13T15:44:24Z</time>
      </trkpt>
      <trkpt lat="43.87552" lon="5.70513">
        <ele>465.3</ele>
        <time>2021-08-13T15:44:59Z</time>
      </trkpt>
      <trkpt lat="43.87552" lon="5.70383">
        <ele>466.2</ele>
        <time>2021-08-13T15:45:24Z</time>
      </trkpt>
      <trkpt lat="43.8749" lon="5.70255">
        <ele>465.4</ele>
        <time>2021-08-13T15:45:49Z</time>
      </trkpt>
      <trkpt lat="43.87435" lon="5.70149">
        <ele>460.5</ele>
        <time>2021-08-13T15:46:09Z</time>
      </trkpt>
      <trkpt lat="43.87378" lon="5.70045">
        <ele>465.2</ele>
        <time>2021-08-13T15:46:29Z</time>
      </trkpt>
      <trkpt lat="43.87314" lon="5.69928">
        <ele>466.5</ele>
        <time>2021-08-13T15:46:49Z</time>
      </trkpt>
      <trkpt lat="43.8724" lon="5.6979">
        <ele>467.8</ele>
        <time>2021-08-13T15:47:09Z</time>
      </trkpt>
      <trkpt lat="43.87171" lon="5.6965">
        <ele>469.9</ele>
        <time>2021-08-13T15:47:29Z</time>
      </trkpt>
      <trkpt lat="43.87116" lon="5.69535">
        <ele>467.7</ele>
        <time>2021-08-13T15:47:49Z</time>
      </trkpt>
      <trkpt lat="43.87062" lon="5.69421">
        <ele>464.1</ele>
        <time>2021-08-13T15:48:14Z</time>
      </trkpt>
      <trkpt lat="43.87001" lon="5.69294">
        <ele>465.4</ele>
        <time>2021-08-13T15:48:44Z</time>
      </trkpt>
      <trkpt lat="43.86939" lon="5.69174">
        <ele>464.7</ele>
        <time>2021-08-13T15:49:14Z</time>
      </trkpt>
      <trkpt lat="43.86878" lon="5.69055">
        <ele>465.7</ele>
        <time>2021-08-13T15:49:44Z</time>
      </trkpt>
      <trkpt lat="43.86821" lon="5.68933">
        <ele>467.1</ele>
        <time>2021-08-13T15:50:14Z</time>
      </trkpt>
      <trkpt lat="43.8677" lon="5.68816">
        <ele>470.4</ele>
        <time>2021-08-13T15:50:44Z</time>
      </trkpt>
      <trkpt lat="43.86717" lon="5.6869">
        <ele>473.8</ele>
        <time>2021-08-13T15:51:14Z</time>
      </trkpt>
      <trkpt lat="43.86665" lon="5.68558">
        <ele>476.5</ele>
        <time>2021-08-13T15:51:44Z</time>
      </trkpt>
      <trkpt lat="43.86618" lon="5.68428">
        <ele>479.7</ele>
        <time>2021-08-13T15:52:19Z</time>
      </trkpt>
      <trkpt lat="43.86575" lon="5.68313">
        <ele>480.2</ele>
        <time>2021-08-13T15:52:49Z</time>
      </trkpt>
      <trkpt lat="43.86525" lon="5.68198">
        <ele>491.8</ele>
        <time>2021-08-13T15:53:19Z</time>
      </trkpt>
      <trkpt lat="43.86478" lon="5.68084">
        <ele>490</ele>
        <time>2021-08-13T15:53:49Z</time>
      </trkpt>
      <trkpt lat="43.8641" lon="5.67964">
        <ele>487.1</ele>
        <time>2021-08-13T15:56:22Z</time>
      </trkpt>
      <trkpt lat="43.86351" lon="5.67848">
        <ele>480.6</ele>
        <time>2021-08-13T15:56:37Z</time>
      </trkpt>
      <trkpt lat="43.8631" lon="5.67689">
        <ele>474.8</ele>
        <time>2021-08-13T15:56:52Z</time>
      </trkpt>
      <trkpt lat="43.86305" lon="5.67559">
        <ele>467.3</ele>
        <time>2021-08-13T15:57:02Z</time>
      </trkpt>
      <trkpt lat="43.86304" lon="5.67402">
        <ele>458.2</ele>
        <time>2021-08-13T15:57:12Z</time>
      </trkpt>
      <trkpt lat="43.86305" lon="5.67233">
        <ele>449.2</ele>
        <time>2021-08-13T15:57:22Z</time>
      </trkpt>
      <trkpt lat="43.86308" lon="5.67081">
        <ele>440.1</ele>
        <time>2021-08-13T15:57:32Z</time>
      </trkpt>
      <trkpt lat="43.86313" lon="5.6694">
        <ele>431.2</ele>
        <time>2021-08-13T15:57:42Z</time>
      </trkpt>
      <trkpt lat="43.86325" lon="5.66803">
        <ele>423.2</ele>
        <time>2021-08-13T15:57:52Z</time>
      </trkpt>
      <trkpt lat="43.86337" lon="5.66675">
        <ele>419.1</ele>
        <time>2021-08-13T15:58:02Z</time>
      </trkpt>
      <trkpt lat="43.86349" lon="5.66548">
        <ele>414.1</ele>
        <time>2021-08-13T15:58:12Z</time>
      </trkpt>
      <trkpt lat="43.86359" lon="5.66372">
        <ele>413.2</ele>
        <time>2021-08-13T15:58:27Z</time>
      </trkpt>
      <trkpt lat="43.86375" lon="5.66241">
        <ele>421.7</ele>
        <time>2021-08-13T15:59:18Z</time>
      </trkpt>
      <trkpt lat="43.86328" lon="5.66118">
        <ele>421</ele>
        <time>2021-08-13T15:59:33Z</time>
      </trkpt>
      <trkpt lat="43.86326" lon="5.65992">
        <ele>424.2</ele>
        <time>2021-08-13T16:02:42Z</time>
      </trkpt>
      <trkpt lat="43.86281" lon="5.65857">
        <ele>427.2</ele>
        <time>2021-08-13T16:15:10Z</time>
      </trkpt>
      <trkpt lat="43.86224" lon="5.65725">
        <ele>425.5</ele>
        <time>2021-08-13T16:15:30Z</time>
      </trkpt>
      <trkpt lat="43.86158" lon="5.65621">
        <ele>422.3</ele>
        <time>2021-08-13T16:15:50Z</time>
      </trkpt>
      <trkpt lat="43.86101" lon="5.65485">
        <ele>422.2</ele>
        <time>2021-08-13T16:16:15Z</time>
      </trkpt>
      <trkpt lat="43.86049" lon="5.65355">
        <ele>420.8</ele>
        <time>2021-08-13T16:16:40Z</time>
      </trkpt>
      <trkpt lat="43.85996" lon="5.65243">
        <ele>417.9</ele>
        <time>2021-08-13T16:17:00Z</time>
      </trkpt>
      <trkpt lat="43.85933" lon="5.65086">
        <ele>411</ele>
        <time>2021-08-13T16:17:20Z</time>
      </trkpt>
      <trkpt lat="43.85879" lon="5.64925">
        <ele>407.5</ele>
        <time>2021-08-13T16:17:35Z</time>
      </trkpt>
      <trkpt lat="43.85843" lon="5.64787">
        <ele>405.3</ele>
        <time>2021-08-13T16:17:45Z</time>
      </trkpt>
      <trkpt lat="43.85817" lon="5.64652">
        <ele>403.4</ele>
        <time>2021-08-13T16:17:55Z</time>
      </trkpt>
      <trkpt lat="43.85789" lon="5.64481">
        <ele>397.9</ele>
        <time>2021-08-13T16:18:10Z</time>
      </trkpt>
      <trkpt lat="43.8581" lon="5.64324">
        <ele>393.8</ele>
        <time>2021-08-13T16:18:25Z</time>
      </trkpt>
      <trkpt lat="43.85846" lon="5.64178">
        <ele>390.6</ele>
        <time>2021-08-13T16:18:40Z</time>
      </trkpt>
      <trkpt lat="43.85877" lon="5.64032">
        <ele>387.7</ele>
        <time>2021-08-13T16:19:00Z</time>
      </trkpt>
      <trkpt lat="43.85912" lon="5.63912">
        <ele>386.8</ele>
        <time>2021-08-13T16:19:15Z</time>
      </trkpt>
      <trkpt lat="43.85956" lon="5.63789">
        <ele>385.6</ele>
        <time>2021-08-13T16:19:30Z</time>
      </trkpt>
      <trkpt lat="43.85964" lon="5.63634">
        <ele>384.1</ele>
        <time>2021-08-13T16:19:50Z</time>
      </trkpt>
      <trkpt lat="43.85962" lon="5.63504">
        <ele>382.2</ele>
        <time>2021-08-13T16:20:05Z</time>
      </trkpt>
      <trkpt lat="43.85944" lon="5.63371">
        <ele>380.1</ele>
        <time>2021-08-13T16:20:20Z</time>
      </trkpt>
      <trkpt lat="43.85926" lon="5.63216">
        <ele>379.9</ele>
        <time>2021-08-13T16:20:40Z</time>
      </trkpt>
      <trkpt lat="43.85955" lon="5.63084">
        <ele>386.7</ele>
        <time>2021-08-13T16:21:15Z</time>
      </trkpt>
      <trkpt lat="43.85971" lon="5.62952">
        <ele>387.9</ele>
        <time>2021-08-13T16:21:45Z</time>
      </trkpt>
      <trkpt lat="43.85994" lon="5.62827">
        <ele>387.6</ele>
        <time>2021-08-13T16:22:10Z</time>
      </trkpt>
      <trkpt lat="43.86025" lon="5.62665">
        <ele>383.8</ele>
        <time>2021-08-13T16:22:30Z</time>
      </trkpt>
      <trkpt lat="43.86021" lon="5.62512">
        <ele>379.9</ele>
        <time>2021-08-13T16:22:45Z</time>
      </trkpt>
      <trkpt lat="43.86004" lon="5.62355">
        <ele>378.4</ele>
        <time>2021-08-13T16:23:05Z</time>
      </trkpt>
      <trkpt lat="43.85991" lon="5.62221">
        <ele>380.2</ele>
        <time>2021-08-13T16:23:30Z</time>
      </trkpt>
      <trkpt lat="43.85958" lon="5.6208">
        <ele>387.8</ele>
        <time>2021-08-13T16:23:55Z</time>
      </trkpt>
      <trkpt lat="43.8592" lon="5.61919">
        <ele>390</ele>
        <time>2021-08-13T16:24:15Z</time>
      </trkpt>
      <trkpt lat="43.85891" lon="5.6178">
        <ele>386.8</ele>
        <time>2021-08-13T16:24:30Z</time>
      </trkpt>
      <trkpt lat="43.85896" lon="5.61654">
        <ele>384.1</ele>
        <time>2021-08-13T16:26:57Z</time>
      </trkpt>
      <trkpt lat="43.85931" lon="5.61528">
        <ele>382.8</ele>
        <time>2021-08-13T16:27:17Z</time>
      </trkpt>
      <trkpt lat="43.85969" lon="5.61391">
        <ele>381.1</ele>
        <time>2021-08-13T16:27:37Z</time>
      </trkpt>
      <trkpt lat="43.86008" lon="5.61241">
        <ele>378.6</ele>
        <time>2021-08-13T16:28:02Z</time>
      </trkpt>
      <trkpt lat="43.86041" lon="5.61122">
        <ele>376.7</ele>
        <time>2021-08-13T16:28:17Z</time>
      </trkpt>
      <trkpt lat="43.86052" lon="5.60989">
        <ele>376.5</ele>
        <time>2021-08-13T16:28:32Z</time>
      </trkpt>
      <trkpt lat="43.86019" lon="5.6084">
        <ele>376</ele>
        <time>2021-08-13T16:28:47Z</time>
      </trkpt>
      <trkpt lat="43.8598" lon="5.60688">
        <ele>375.2</ele>
        <time>2021-08-13T16:29:02Z</time>
      </trkpt>
      <trkpt lat="43.8595" lon="5.60539">
        <ele>375.1</ele>
        <time>2021-08-13T16:29:17Z</time>
      </trkpt>
      <trkpt lat="43.85923" lon="5.60397">
        <ele>371.2</ele>
        <time>2021-08-13T16:29:32Z</time>
      </trkpt>
      <trkpt lat="43.85897" lon="5.60236">
        <ele>367.1</ele>
        <time>2021-08-13T16:29:57Z</time>
      </trkpt>
      <trkpt lat="43.85909" lon="5.60099">
        <ele>362.5</ele>
        <time>2021-08-13T16:30:12Z</time>
      </trkpt>
      <trkpt lat="43.85915" lon="5.59967">
        <ele>360.6</ele>
        <time>2021-08-13T16:30:27Z</time>
      </trkpt>
      <trkpt lat="43.85921" lon="5.59833">
        <ele>356.9</ele>
        <time>2021-08-13T16:30:52Z</time>
      </trkpt>
      <trkpt lat="43.85938" lon="5.59682">
        <ele>355</ele>
        <time>2021-08-13T16:31:07Z</time>
      </trkpt>
      <trkpt lat="43.85932" lon="5.59539">
        <ele>351.9</ele>
        <time>2021-08-13T16:31:27Z</time>
      </trkpt>
      <trkpt lat="43.85842" lon="5.59454">
        <ele>345.7</ele>
        <time>2021-08-13T16:32:02Z</time>
      </trkpt>
      <trkpt lat="43.85754" lon="5.5939">
        <ele>342</ele>
        <time>2021-08-13T16:32:47Z</time>
      </trkpt>
      <trkpt lat="43.85714" lon="5.59258">
        <ele>341.3</ele>
        <time>2021-08-13T16:33:27Z</time>
      </trkpt>
      <trkpt lat="43.8566" lon="5.59145">
        <ele>341.1</ele>
        <time>2021-08-13T16:33:57Z</time>
      </trkpt>
      <trkpt lat="43.85596" lon="5.59048">
        <ele>356.8</ele>
        <time>2021-08-13T16:36:03Z</time>
      </trkpt>
      <trkpt lat="43.85558" lon="5.59165">
        <ele>373</ele>
        <time>2021-08-13T16:39:22Z</time>
      </trkpt>
    </trkseg>
  </trk>
</gpx>